Observation data for Fort McKavett on 11/17/2019      Previous  Date       Current Mesonet Observations  Soil Data  Daily Summary Page  Observations in Plain Language
KMC1 170600Z 19004KT 09/03 A3003 RMK A01 T00920033  RH  066%=      5-min Rain = 0
KMC1 170601Z 19005KT 09/03 A3003 RMK A01 T00920032  RH  066%=      5-min Rain = 0
KMC1 170602Z 19006KT 09/03 A3003 RMK A01 T00910032  RH  066%=      5-min Rain = 0
KMC1 170603Z 19006KT 09/03 A3003 RMK A01 T00920032  RH  066%=      5-min Rain = 0
KMC1 170604Z 18005KT 09/03 A3003 RMK A01 T00930033  RH  066%=      5-min Rain = 0
KMC1 170605Z 19007KT 09/03 A3003 RMK A01 T00930032  RH  066%=      5-min Rain = 0
KMC1 170606Z 18007KT 09/03 A3003 RMK A01 T00930032  RH  066%=      5-min Rain = 0
KMC1 170607Z 18007KT 09/03 A3003 RMK A01 T00930032  RH  066%=      5-min Rain = 0
KMC1 170608Z 19008KT 09/03 A3003 RMK A01 T00930032  RH  066%=      5-min Rain = 0
KMC1 170609Z 19008KT 09/03 A3003 RMK A01 T00930032  RH  066%=      5-min Rain = 0
KMC1 170610Z 18008KT 09/03 A3003 RMK A01 T00930032  RH  065%=      5-min Rain = 0
KMC1 170611Z 18007KT 09/03 A3003 RMK A01 T00940032  RH  065%=      5-min Rain = 0
KMC1 170612Z 19006KT 09/03 A3003 RMK A01 T00940032  RH  065%=      5-min Rain = 0
KMC1 170613Z 18006KT 09/03 A3003 RMK A01 T00940032  RH  065%=      5-min Rain = 0
KMC1 170614Z 18007KT 09/03 A3003 RMK A01 T00940032  RH  065%=      5-min Rain = 0
KMC1 170615Z 18006KT 09/03 A3003 RMK A01 T00930032  RH  066%=      5-min Rain = 0
KMC1 170616Z 18008KT 09/03 A3003 RMK A01 T00930032  RH  066%=      5-min Rain = 0
KMC1 170617Z 18006KT 09/03 A3003 RMK A01 T00930032  RH  065%=      5-min Rain = 0
KMC1 170618Z 19006KT 09/03 A3003 RMK A01 T00930031  RH  065%=      5-min Rain = 0
KMC1 170619Z 19007KT 09/03 A3002 RMK A01 T00930031  RH  065%=      5-min Rain = 0
KMC1 170620Z 18007KT 09/03 A3002 RMK A01 T00930031  RH  065%=      5-min Rain = 0
KMC1 170621Z 18006KT 09/03 A3002 RMK A01 T00930031  RH  065%=      5-min Rain = 0
KMC1 170622Z 19006KT 09/03 A3002 RMK A01 T00930031  RH  065%=      5-min Rain = 0
KMC1 170623Z 18007KT 09/03 A3002 RMK A01 T00940032  RH  065%=      5-min Rain = 0
KMC1 170624Z 18006KT 09/03 A3002 RMK A01 T00930031  RH  065%=      5-min Rain = 0
KMC1 170625Z 19005KT 09/03 A3002 RMK A01 T00930031  RH  065%=      5-min Rain = 0
KMC1 170626Z 19006KT 09/03 A3002 RMK A01 T00930031  RH  065%=      5-min Rain = 0
KMC1 170627Z 19005KT 09/03 A3002 RMK A01 T00930031  RH  065%=      5-min Rain = 0
KMC1 170628Z 19004KT 09/03 A3002 RMK A01 T00920031  RH  065%=      5-min Rain = 0
KMC1 170629Z 19006KT 09/03 A3002 RMK A01 T00920031  RH  065%=      5-min Rain = 0
KMC1 170630Z 20005KT 09/03 A3002 RMK A01 T00910031  RH  066%=      5-min Rain = 0
KMC1 170631Z 19005KT 09/03 A3002 RMK A01 T00910031  RH  066%=      5-min Rain = 0
KMC1 170632Z 19005KT 09/03 A3002 RMK A01 T00910031  RH  066%=      5-min Rain = 0
KMC1 170633Z 19005KT 09/03 A3002 RMK A01 T00910030  RH  066%=      5-min Rain = 0
KMC1 170634Z 19005KT 09/03 A3002 RMK A01 T00910030  RH  066%=      5-min Rain = 0
KMC1 170635Z 19004KT 09/03 A3002 RMK A01 T00910030  RH  066%=      5-min Rain = 0
KMC1 170636Z 19005KT 09/03 A3002 RMK A01 T00910030  RH  066%=      5-min Rain = 0
KMC1 170637Z 20004KT 09/03 A3002 RMK A01 T00910030  RH  066%=      5-min Rain = 0
KMC1 170638Z 19005KT 09/03 A3002 RMK A01 T00910030  RH  066%=      5-min Rain = 0
KMC1 170639Z 20004KT 09/03 A3002 RMK A01 T00910030  RH  066%=      5-min Rain = 0
KMC1 170640Z 20004KT 09/03 A3002 RMK A01 T00900030  RH  066%=      5-min Rain = 0
KMC1 170641Z 20005KT 09/03 A3002 RMK A01 T00900030  RH  066%=      5-min Rain = 0
KMC1 170642Z 20005KT 09/03 A3002 RMK A01 T00890030  RH  066%=      5-min Rain = 0
KMC1 170643Z 20005KT 09/03 A3002 RMK A01 T00880030  RH  067%=      5-min Rain = 0
KMC1 170644Z 20005KT 09/03 A3002 RMK A01 T00880030  RH  067%=      5-min Rain = 0
KMC1 170645Z 19005KT 09/03 A3002 RMK A01 T00880030  RH  067%=      5-min Rain = 0
KMC1 170646Z 20005KT 09/03 A3002 RMK A01 T00880030  RH  067%=      5-min Rain = 0
KMC1 170647Z 19004KT 09/03 A3002 RMK A01 T00880030  RH  067%=      5-min Rain = 0
KMC1 170648Z 19004KT 09/03 A3002 RMK A01 T00880030  RH  067%=      5-min Rain = 0
KMC1 170649Z 20004KT 09/03 A3002 RMK A01 T00880030  RH  067%=      5-min Rain = 0
KMC1 170650Z 20004KT 09/03 A3002 RMK A01 T00880029  RH  067%=      5-min Rain = 0
KMC1 170651Z 19004KT 09/03 A3002 RMK A01 T00870029  RH  067%=      5-min Rain = 0
KMC1 170652Z 19004KT 09/03 A3002 RMK A01 T00880030  RH  067%=      5-min Rain = 0
KMC1 170653Z 19004KT 09/03 A3002 RMK A01 T00880030  RH  067%=      5-min Rain = 0
KMC1 170654Z 20004KT 09/03 A3002 RMK A01 T00880029  RH  067%=      5-min Rain = 0
KMC1 170655Z 19004KT 09/03 A3002 RMK A01 T00870029  RH  067%=      5-min Rain = 0
KMC1 170656Z 20004KT 09/03 A3002 RMK A01 T00870029  RH  067%=      5-min Rain = 0
KMC1 170657Z 19005KT 09/03 A3002 RMK A01 T00880029  RH  067%=      5-min Rain = 0
KMC1 170658Z 20004KT 09/03 A3002 RMK A01 T00870029  RH  067%=      5-min Rain = 0
KMC1 170659Z 19004KT 09/03 A3002 RMK A01 T00880030  RH  067%=      5-min Rain = 0
KMC1 170700Z 19004KT 09/03 A3002 RMK A01 T00870029  RH  067%=      5-min Rain = 0
KMC1 170701Z 19003KT 09/03 A3002 RMK A01 T00870029  RH  067%=      5-min Rain = 0
KMC1 170702Z 19004KT 09/03 A3002 RMK A01 T00870029  RH  067%=      5-min Rain = 0
KMC1 170703Z 20004KT 09/03 A3002 RMK A01 T00860029  RH  067%=      5-min Rain = 0
KMC1 170704Z 20004KT 09/03 A3002 RMK A01 T00860029  RH  068%=      5-min Rain = 0
KMC1 170705Z 20003KT 09/03 A3002 RMK A01 T00860029  RH  068%=      5-min Rain = 0
KMC1 170706Z 20004KT 09/03 A3002 RMK A01 T00860029  RH  068%=      5-min Rain = 0
KMC1 170707Z 21004KT 09/03 A3002 RMK A01 T00860029  RH  068%=      5-min Rain = 0
KMC1 170708Z 20003KT 09/03 A3002 RMK A01 T00860029  RH  068%=      5-min Rain = 0
KMC1 170709Z 20005KT 09/03 A3002 RMK A01 T00860029  RH  068%=      5-min Rain = 0
KMC1 170710Z 20003KT 09/03 A3002 RMK A01 T00860029  RH  068%=      5-min Rain = 0
KMC1 170711Z 20004KT 09/03 A3002 RMK A01 T00860029  RH  067%=      5-min Rain = 0
KMC1 170712Z 21005KT 09/03 A3003 RMK A01 T00870029  RH  067%=      5-min Rain = 0
KMC1 170713Z 21004KT 09/03 A3003 RMK A01 T00870029  RH  067%=      5-min Rain = 0
KMC1 170714Z 20004KT 09/03 A3003 RMK A01 T00870029  RH  067%=      5-min Rain = 0
KMC1 170715Z 21006KT 09/03 A3003 RMK A01 T00880029  RH  067%=      5-min Rain = 0
KMC1 170716Z 20005KT 09/03 A3003 RMK A01 T00870029  RH  067%=      5-min Rain = 0
KMC1 170717Z 21004KT 09/03 A3003 RMK A01 T00870029  RH  067%=      5-min Rain = 0
KMC1 170718Z 21006KT 09/03 A3003 RMK A01 T00870029  RH  067%=      5-min Rain = 0
KMC1 170719Z 20005KT 09/03 A3003 RMK A01 T00870029  RH  067%=      5-min Rain = 0
KMC1 170720Z 20005KT 09/03 A3003 RMK A01 T00870029  RH  067%=      5-min Rain = 0
KMC1 170721Z 20007KT 09/03 A3003 RMK A01 T00880029  RH  067%=      5-min Rain = 0
KMC1 170722Z 21005KT 09/03 A3003 RMK A01 T00880030  RH  067%=      5-min Rain = 0
KMC1 170723Z 20005KT 09/03 A3003 RMK A01 T00890030  RH  066%=      5-min Rain = 0
KMC1 170724Z 21005KT 09/03 A3003 RMK A01 T00890030  RH  066%=      5-min Rain = 0
KMC1 170725Z 20005KT 09/03 A3003 RMK A01 T00890029  RH  066%=      5-min Rain = 0
KMC1 170726Z 21004KT 09/03 A3003 RMK A01 T00890030  RH  066%=      5-min Rain = 0
KMC1 170727Z 20005KT 09/03 A3003 RMK A01 T00880029  RH  066%=      5-min Rain = 0
KMC1 170728Z 20005KT 09/03 A3003 RMK A01 T00880029  RH  067%=      5-min Rain = 0
KMC1 170729Z 21004KT 09/03 A3003 RMK A01 T00870029  RH  067%=      5-min Rain = 0
KMC1 170730Z 21005KT 09/03 A3003 RMK A01 T00870029  RH  067%=      5-min Rain = 0
KMC1 170731Z 21004KT 09/03 A3003 RMK A01 T00870029  RH  067%=      5-min Rain = 0
KMC1 170732Z 19004KT 09/03 A3003 RMK A01 T00870029  RH  067%=      5-min Rain = 0
KMC1 170733Z 20004KT 09/03 A3003 RMK A01 T00870029  RH  067%=      5-min Rain = 0
KMC1 170734Z 21004KT 09/03 A3003 RMK A01 T00870029  RH  067%=      5-min Rain = 0
KMC1 170735Z 20004KT 09/03 A3003 RMK A01 T00860029  RH  067%=      5-min Rain = 0
KMC1 170736Z 20004KT 09/03 A3003 RMK A01 T00860029  RH  067%=      5-min Rain = 0
KMC1 170737Z 21004KT 09/03 A3003 RMK A01 T00860029  RH  067%=      5-min Rain = 0
KMC1 170738Z 22003KT 09/03 A3003 RMK A01 T00850029  RH  068%=      5-min Rain = 0
KMC1 170739Z 22003KT 09/03 A3003 RMK A01 T00850029  RH  068%=      5-min Rain = 0
KMC1 170740Z 22004KT 08/03 A3003 RMK A01 T00840028  RH  068%=      5-min Rain = 0
KMC1 170741Z 23003KT 08/03 A3003 RMK A01 T00830028  RH  068%=      5-min Rain = 0
KMC1 170742Z 23002KT 08/03 A3003 RMK A01 T00830028  RH  068%=      5-min Rain = 0
KMC1 170743Z 24002KT 08/03 A3003 RMK A01 T00830028  RH  068%=      5-min Rain = 0
KMC1 170744Z 25002KT 08/03 A3003 RMK A01 T00820028  RH  069%=      5-min Rain = 0
KMC1 170745Z 25002KT 08/03 A3003 RMK A01 T00810028  RH  069%=      5-min Rain = 0
KMC1 170746Z 25002KT 08/03 A3003 RMK A01 T00800028  RH  069%=      5-min Rain = 0
KMC1 170747Z 25002KT 08/03 A3003 RMK A01 T00790027  RH  070%=      5-min Rain = 0
KMC1 170748Z 25003KT 08/03 A3003 RMK A01 T00780027  RH  070%=      5-min Rain = 0
KMC1 170749Z 25002KT 08/03 A3003 RMK A01 T00780027  RH  070%=      5-min Rain = 0
KMC1 170750Z 25002KT 08/03 A3003 RMK A01 T00770027  RH  071%=      5-min Rain = 0
KMC1 170751Z 25002KT 08/03 A3003 RMK A01 T00760027  RH  071%=      5-min Rain = 0
KMC1 170752Z 25002KT 08/03 A3003 RMK A01 T00760028  RH  071%=      5-min Rain = 0
KMC1 170753Z 25002KT 08/03 A3003 RMK A01 T00760027  RH  072%=      5-min Rain = 0
KMC1 170754Z 24002KT 08/03 A3003 RMK A01 T00750027  RH  072%=      5-min Rain = 0
KMC1 170755Z 23002KT 07/03 A3003 RMK A01 T00740027  RH  072%=      5-min Rain = 0
KMC1 170756Z 23002KT 07/03 A3003 RMK A01 T00740027  RH  072%=      5-min Rain = 0
KMC1 170757Z 23002KT 07/03 A3003 RMK A01 T00730027  RH  072%=      5-min Rain = 0
KMC1 170758Z 23003KT 07/03 A3003 RMK A01 T00720027  RH  073%=      5-min Rain = 0
KMC1 170759Z 23003KT 07/03 A3003 RMK A01 T00720027  RH  073%=      5-min Rain = 0
KMC1 170800Z 23003KT 07/03 A3003 RMK A01 T00710026  RH  073%=      5-min Rain = 0
KMC1 170801Z 23003KT 07/03 A3003 RMK A01 T00700026  RH  074%=      5-min Rain = 0
KMC1 170802Z 23003KT 07/03 A3003 RMK A01 T00700027  RH  074%=      5-min Rain = 0
KMC1 170803Z 23003KT 07/03 A3003 RMK A01 T00690027  RH  074%=      5-min Rain = 0
KMC1 170804Z 22003KT 07/03 A3003 RMK A01 T00690027  RH  074%=      5-min Rain = 0
KMC1 170805Z 22003KT 07/03 A3003 RMK A01 T00690027  RH  075%=      5-min Rain = 0
KMC1 170806Z 23003KT 07/03 A3003 RMK A01 T00690027  RH  075%=      5-min Rain = 0
KMC1 170807Z 23003KT 07/03 A3003 RMK A01 T00690027  RH  075%=      5-min Rain = 0
KMC1 170808Z 23002KT 07/03 A3003 RMK A01 T00690027  RH  075%=      5-min Rain = 0
KMC1 170809Z 23003KT 07/03 A3003 RMK A01 T00700027  RH  074%=      5-min Rain = 0
KMC1 170810Z 24003KT 07/03 A3003 RMK A01 T00700027  RH  074%=      5-min Rain = 0
KMC1 170811Z 25003KT 07/03 A3003 RMK A01 T00700027  RH  074%=      5-min Rain = 0
KMC1 170812Z 25003KT 07/03 A3003 RMK A01 T00700027  RH  074%=      5-min Rain = 0
KMC1 170813Z 25003KT 07/03 A3003 RMK A01 T00700027  RH  074%=      5-min Rain = 0
KMC1 170814Z 25003KT 07/03 A3003 RMK A01 T00700027  RH  074%=      5-min Rain = 0
KMC1 170815Z 25003KT 07/03 A3003 RMK A01 T00690027  RH  074%=      5-min Rain = 0
KMC1 170816Z 25003KT 07/03 A3003 RMK A01 T00690027  RH  075%=      5-min Rain = 0
KMC1 170817Z 24003KT 07/03 A3003 RMK A01 T00680027  RH  075%=      5-min Rain = 0
KMC1 170818Z 23003KT 07/03 A3003 RMK A01 T00680027  RH  075%=      5-min Rain = 0
KMC1 170819Z 23003KT 07/03 A3003 RMK A01 T00680027  RH  075%=      5-min Rain = 0
KMC1 170820Z 23003KT 07/03 A3003 RMK A01 T00670026  RH  075%=      5-min Rain = 0
KMC1 170821Z 22003KT 07/03 A3003 RMK A01 T00670027  RH  075%=      5-min Rain = 0
KMC1 170822Z 23003KT 07/03 A3003 RMK A01 T00660026  RH  076%=      5-min Rain = 0
KMC1 170823Z 22003KT 07/03 A3003 RMK A01 T00660027  RH  076%=      5-min Rain = 0
KMC1 170824Z 22003KT 07/03 A3003 RMK A01 T00660026  RH  076%=      5-min Rain = 0
KMC1 170825Z 23003KT 07/03 A3003 RMK A01 T00660027  RH  076%=      5-min Rain = 0
KMC1 170826Z 23003KT 07/03 A3003 RMK A01 T00660026  RH  076%=      5-min Rain = 0
KMC1 170827Z 24003KT 07/03 A3003 RMK A01 T00660026  RH  076%=      5-min Rain = 0
KMC1 170828Z 24003KT 07/03 A3003 RMK A01 T00660027  RH  076%=      5-min Rain = 0
KMC1 170829Z 24003KT 07/03 A3003 RMK A01 T00660026  RH  076%=      5-min Rain = 0
KMC1 170830Z 24002KT 07/03 A3003 RMK A01 T00660026  RH  076%=      5-min Rain = 0
KMC1 170831Z 25002KT 07/03 A3003 RMK A01 T00670027  RH  076%=      5-min Rain = 0
KMC1 170832Z 24003KT 07/03 A3003 RMK A01 T00670027  RH  076%=      5-min Rain = 0
KMC1 170833Z 24002KT 07/03 A3003 RMK A01 T00660027  RH  076%=      5-min Rain = 0
KMC1 170834Z 24002KT 07/03 A3003 RMK A01 T00660027  RH  076%=      5-min Rain = 0
KMC1 170835Z 24003KT 07/03 A3003 RMK A01 T00660026  RH  076%=      5-min Rain = 0
KMC1 170836Z 24002KT 07/03 A3003 RMK A01 T00660026  RH  076%=      5-min Rain = 0
KMC1 170837Z 24002KT 07/03 A3003 RMK A01 T00660027  RH  076%=      5-min Rain = 0
KMC1 170838Z 25002KT 07/03 A3003 RMK A01 T00660027  RH  076%=      5-min Rain = 0
KMC1 170839Z 25002KT 07/03 A3003 RMK A01 T00660027  RH  076%=      5-min Rain = 0
KMC1 170840Z 25002KT 07/03 A3002 RMK A01 T00660027  RH  076%=      5-min Rain = 0
KMC1 170841Z 25002KT 07/03 A3002 RMK A01 T00660026  RH  076%=      5-min Rain = 0
KMC1 170842Z 26002KT 07/03 A3002 RMK A01 T00670027  RH  076%=      5-min Rain = 0
KMC1 170843Z 25002KT 07/03 A3002 RMK A01 T00670027  RH  075%=      5-min Rain = 0
KMC1 170844Z 25002KT 07/03 A3002 RMK A01 T00670027  RH  075%=      5-min Rain = 0
KMC1 170845Z 24002KT 07/03 A3002 RMK A01 T00670026  RH  075%=      5-min Rain = 0
KMC1 170846Z 23002KT 07/03 A3002 RMK A01 T00670026  RH  075%=      5-min Rain = 0
KMC1 170847Z 23002KT 07/03 A3002 RMK A01 T00670027  RH  076%=      5-min Rain = 0
KMC1 170848Z 22003KT 07/03 A3002 RMK A01 T00660026  RH  076%=      5-min Rain = 0
KMC1 170849Z 22003KT 07/03 A3002 RMK A01 T00660026  RH  076%=      5-min Rain = 0
KMC1 170850Z 22003KT 07/03 A3002 RMK A01 T00660026  RH  076%=      5-min Rain = 0
KMC1 170851Z 21003KT 07/03 A3002 RMK A01 T00650025  RH  076%=      5-min Rain = 0
KMC1 170852Z 21004KT 07/03 A3002 RMK A01 T00650026  RH  076%=      5-min Rain = 0
KMC1 170853Z 21004KT 07/03 A3002 RMK A01 T00650026  RH  076%=      5-min Rain = 0
KMC1 170854Z 21004KT 07/03 A3002 RMK A01 T00650026  RH  076%=      5-min Rain = 0
KMC1 170855Z 21004KT 06/03 A3002 RMK A01 T00640025  RH  076%=      5-min Rain = 0
KMC1 170856Z 21003KT 06/03 A3002 RMK A01 T00640025  RH  076%=      5-min Rain = 0
KMC1 170857Z 21004KT 07/03 A3001 RMK A01 T00650025  RH  076%=      5-min Rain = 0
KMC1 170858Z 21003KT 07/03 A3001 RMK A01 T00650026  RH  076%=      5-min Rain = 0
KMC1 170859Z 21003KT 07/03 A3001 RMK A01 T00650026  RH  076%=      5-min Rain = 0
KMC1 170900Z 21003KT 07/03 A3001 RMK A01 T00650026  RH  076%=      5-min Rain = 0
KMC1 170901Z 21003KT 06/03 A3001 RMK A01 T00640025  RH  076%=      5-min Rain = 0
KMC1 170902Z 21003KT 06/03 A3001 RMK A01 T00640025  RH  076%=      5-min Rain = 0
KMC1 170903Z 21003KT 07/03 A3001 RMK A01 T00650025  RH  076%=      5-min Rain = 0
KMC1 170904Z 21003KT 07/03 A3001 RMK A01 T00650025  RH  076%=      5-min Rain = 0
KMC1 170905Z 21003KT 07/03 A3001 RMK A01 T00650025  RH  076%=      5-min Rain = 0
KMC1 170906Z 21002KT 07/03 A3001 RMK A01 T00650025  RH  076%=      5-min Rain = 0
KMC1 170907Z 21002KT 07/03 A3001 RMK A01 T00650025  RH  076%=      5-min Rain = 0
KMC1 170908Z 21002KT 07/03 A3001 RMK A01 T00650025  RH  076%=      5-min Rain = 0
KMC1 170909Z 21002KT 07/03 A3001 RMK A01 T00650025  RH  076%=      5-min Rain = 0
KMC1 170910Z 21003KT 07/03 A3001 RMK A01 T00650025  RH  076%=      5-min Rain = 0
KMC1 170911Z 22002KT 07/03 A3001 RMK A01 T00650025  RH  076%=      5-min Rain = 0
KMC1 170912Z 22002KT 06/03 A3001 RMK A01 T00640025  RH  076%=      5-min Rain = 0
KMC1 170913Z 22002KT 06/03 A3001 RMK A01 T00640025  RH  076%=      5-min Rain = 0
KMC1 170914Z 23001KT 06/03 A3001 RMK A01 T00640025  RH  076%=      5-min Rain = 0
KMC1 170915Z 24002KT 06/03 A3001 RMK A01 T00640025  RH  076%=      5-min Rain = 0
KMC1 170916Z 24001KT 06/03 A3001 RMK A01 T00640025  RH  076%=      5-min Rain = 0
KMC1 170917Z 25001KT 06/03 A3001 RMK A01 T00630025  RH  077%=      5-min Rain = 0
KMC1 170918Z 26001KT 06/03 A3001 RMK A01 T00630025  RH  077%=      5-min Rain = 0
KMC1 170919Z 26001KT 06/03 A3001 RMK A01 T00620025  RH  077%=      5-min Rain = 0
KMC1 170920Z 26001KT 06/03 A3001 RMK A01 T00620025  RH  077%=      5-min Rain = 0
KMC1 170921Z 26001KT 06/03 A3001 RMK A01 T00610025  RH  078%=      5-min Rain = 0
KMC1 170922Z 26001KT 06/03 A3001 RMK A01 T00610025  RH  078%=      5-min Rain = 0
KMC1 170923Z 25001KT 06/03 A3001 RMK A01 T00610025  RH  078%=      5-min Rain = 0
KMC1 170924Z 25001KT 06/03 A3001 RMK A01 T00610025  RH  078%=      5-min Rain = 0
KMC1 170925Z 26002KT 06/03 A3001 RMK A01 T00610025  RH  078%=      5-min Rain = 0
KMC1 170926Z 26002KT 06/03 A3001 RMK A01 T00600025  RH  078%=      5-min Rain = 0
KMC1 170927Z 26002KT 06/02 A3001 RMK A01 T00600024  RH  078%=      5-min Rain = 0
KMC1 170928Z 26002KT 06/03 A3001 RMK A01 T00590025  RH  078%=      5-min Rain = 0
KMC1 170929Z 25002KT 06/02 A3001 RMK A01 T00580024  RH  078%=      5-min Rain = 0
KMC1 170930Z 25002KT 06/02 A3001 RMK A01 T00580024  RH  079%=      5-min Rain = 0
KMC1 170931Z 25002KT 06/02 A3001 RMK A01 T00570023  RH  079%=      5-min Rain = 0
KMC1 170932Z 25002KT 06/02 A3001 RMK A01 T00570024  RH  079%=      5-min Rain = 0
KMC1 170933Z 24003KT 06/02 A3001 RMK A01 T00560023  RH  080%=      5-min Rain = 0
KMC1 170934Z 24002KT 06/02 A3001 RMK A01 T00550023  RH  080%=      5-min Rain = 0
KMC1 170935Z 24002KT 06/02 A3001 RMK A01 T00550023  RH  080%=      5-min Rain = 0
KMC1 170936Z 23002KT 06/02 A3001 RMK A01 T00550024  RH  080%=      5-min Rain = 0
KMC1 170937Z 24002KT 06/02 A3001 RMK A01 T00550024  RH  080%=      5-min Rain = 0
KMC1 170938Z 24002KT 06/02 A3001 RMK A01 T00550024  RH  080%=      5-min Rain = 0
KMC1 170939Z 24002KT 06/02 A3001 RMK A01 T00550024  RH  081%=      5-min Rain = 0
KMC1 170940Z 24002KT 06/02 A3001 RMK A01 T00550024  RH  081%=      5-min Rain = 0
KMC1 170941Z 24002KT 06/02 A3001 RMK A01 T00550024  RH  080%=      5-min Rain = 0
KMC1 170942Z 25001KT 05/02 A3001 RMK A01 T00540023  RH  081%=      5-min Rain = 0
KMC1 170943Z 26001KT 05/02 A3001 RMK A01 T00540024  RH  081%=      5-min Rain = 0
KMC1 170944Z 26001KT 05/03 A3001 RMK A01 T00540025  RH  081%=      5-min Rain = 0
KMC1 170945Z 26001KT 06/03 A3001 RMK A01 T00550025  RH  081%=      5-min Rain = 0
KMC1 170946Z 27001KT 06/03 A3001 RMK A01 T00550025  RH  081%=      5-min Rain = 0
KMC1 170947Z 29001KT 06/03 A3001 RMK A01 T00560025  RH  081%=      5-min Rain = 0
KMC1 170948Z 27000KT 06/03 A3001 RMK A01 T00570026  RH  081%=      5-min Rain = 0
KMC1 170949Z 28000KT 06/03 A3001 RMK A01 T00560025  RH  080%=      5-min Rain = 0
KMC1 170950Z 28000KT 06/03 A3001 RMK A01 T00560025  RH  080%=      5-min Rain = 0
KMC1 170951Z 21000KT 06/02 A3001 RMK A01 T00560023  RH  079%=      5-min Rain = 0
KMC1 170952Z 19000KT 05/02 A3001 RMK A01 T00540023  RH  080%=      5-min Rain = 0
KMC1 170953Z 17002KT 05/02 A30 RMK A01 T00520022  RH  081%=      5-min Rain = 0
KMC1 170954Z 17002KT 05/02 A30 RMK A01 T00510021  RH  081%=      5-min Rain = 0
KMC1 170955Z 17002KT 05/02 A30 RMK A01 T00500021  RH  082%=      5-min Rain = 0
KMC1 170956Z 18002KT 05/02 A30 RMK A01 T00490021  RH  082%=      5-min Rain = 0
KMC1 170957Z 19001KT 05/02 A30 RMK A01 T00490021  RH  082%=      5-min Rain = 0
KMC1 170958Z 21001KT 05/02 A30 RMK A01 T00480021  RH  083%=      5-min Rain = 0
KMC1 170959Z 23001KT 05/02 A3001 RMK A01 T00480022  RH  083%=      5-min Rain = 0
KMC1 171000Z 25001KT 05/02 A3001 RMK A01 T00490024  RH  084%=      5-min Rain = 0
KMC1 171001Z 26001KT 05/03 A3001 RMK A01 T00510025  RH  083%=      5-min Rain = 0
KMC1 171002Z 28001KT 05/03 A3001 RMK A01 T00530025  RH  082%=      5-min Rain = 0
KMC1 171003Z 30002KT 05/02 A3001 RMK A01 T00540024  RH  081%=      5-min Rain = 0
KMC1 171004Z 31002KT 05/02 A3001 RMK A01 T00540023  RH  081%=      5-min Rain = 0
KMC1 171005Z 31002KT 05/02 A3001 RMK A01 T00530023  RH  081%=      5-min Rain = 0
KMC1 171006Z 31003KT 05/02 A3001 RMK A01 T00530024  RH  081%=      5-min Rain = 0
KMC1 171007Z 31002KT 05/02 A3001 RMK A01 T00540024  RH  081%=      5-min Rain = 0
KMC1 171008Z 31003KT 05/02 A3001 RMK A01 T00530023  RH  081%=      5-min Rain = 0
KMC1 171009Z 32003KT 05/02 A3001 RMK A01 T00520022  RH  081%=      5-min Rain = 0
KMC1 171010Z 32003KT 05/02 A3001 RMK A01 T00510022  RH  081%=      5-min Rain = 0
KMC1 171011Z 32003KT 05/02 A3001 RMK A01 T00500022  RH  082%=      5-min Rain = 0
KMC1 171012Z 31003KT 05/02 A3002 RMK A01 T00490022  RH  083%=      5-min Rain = 0
KMC1 171013Z 31003KT 05/02 A3002 RMK A01 T00490023  RH  083%=      5-min Rain = 0
KMC1 171014Z 31003KT 05/02 A3002 RMK A01 T00490023  RH  083%=      5-min Rain = 0
KMC1 171015Z 31002KT 05/02 A3002 RMK A01 T00490023  RH  084%=      5-min Rain = 0
KMC1 171016Z 30002KT 05/02 A3002 RMK A01 T00480024  RH  084%=      5-min Rain = 0
KMC1 171017Z 30002KT 05/02 A3002 RMK A01 T00470023  RH  084%=      5-min Rain = 0
KMC1 171018Z 29003KT 05/02 A3002 RMK A01 T00460022  RH  084%=      5-min Rain = 0
KMC1 171019Z 28003KT 05/02 A3002 RMK A01 T00460022  RH  084%=      5-min Rain = 0
KMC1 171020Z 28003KT 05/02 A3002 RMK A01 T00450022  RH  085%=      5-min Rain = 0
KMC1 171021Z 27003KT 05/02 A3002 RMK A01 T00450023  RH  085%=      5-min Rain = 0
KMC1 171022Z 26003KT 05/02 A3002 RMK A01 T00450023  RH  085%=      5-min Rain = 0
KMC1 171023Z 26002KT 05/02 A3002 RMK A01 T00450023  RH  085%=      5-min Rain = 0
KMC1 171024Z 25003KT 05/02 A3002 RMK A01 T00450022  RH  085%=      5-min Rain = 0
KMC1 171025Z 24003KT 05/02 A3002 RMK A01 T00450022  RH  085%=      5-min Rain = 0
KMC1 171026Z 23004KT 05/02 A3002 RMK A01 T00450022  RH  085%=      5-min Rain = 0
KMC1 171027Z 23004KT 05/02 A3002 RMK A01 T00450023  RH  085%=      5-min Rain = 0
KMC1 171028Z 22004KT 05/02 A3002 RMK A01 T00460024  RH  085%=      5-min Rain = 0
KMC1 171029Z 22003KT 05/02 A3002 RMK A01 T00460023  RH  085%=      5-min Rain = 0
KMC1 171030Z 22004KT 05/02 A3002 RMK A01 T00460023  RH  085%=      5-min Rain = 0
KMC1 171031Z 21004KT 05/02 A3002 RMK A01 T00470024  RH  085%=      5-min Rain = 0
KMC1 171032Z 21004KT 05/02 A3002 RMK A01 T00470023  RH  085%=      5-min Rain = 0
KMC1 171033Z 21003KT 05/02 A3002 RMK A01 T00470023  RH  085%=      5-min Rain = 0
KMC1 171034Z 21004KT 05/02 A3002 RMK A01 T00470023  RH  085%=      5-min Rain = 0
KMC1 171035Z 21004KT 05/02 A3002 RMK A01 T00470023  RH  084%=      5-min Rain = 0
KMC1 171036Z 22004KT 05/02 A3002 RMK A01 T00470023  RH  084%=      5-min Rain = 0
KMC1 171037Z 22004KT 05/02 A3002 RMK A01 T00470023  RH  084%=      5-min Rain = 0
KMC1 171038Z 22004KT 05/02 A3002 RMK A01 T00470022  RH  084%=      5-min Rain = 0
KMC1 171039Z 23004KT 05/02 A3002 RMK A01 T00470022  RH  084%=      5-min Rain = 0
KMC1 171040Z 23004KT 05/02 A3002 RMK A01 T00470022  RH  084%=      5-min Rain = 0
KMC1 171041Z 23003KT 05/02 A3002 RMK A01 T00470022  RH  084%=      5-min Rain = 0
KMC1 171042Z 24004KT 05/02 A3002 RMK A01 T00470021  RH  084%=      5-min Rain = 0
KMC1 171043Z 24003KT 05/02 A3002 RMK A01 T00470022  RH  084%=      5-min Rain = 0
KMC1 171044Z 25003KT 05/02 A3002 RMK A01 T00470021  RH  083%=      5-min Rain = 0
KMC1 171045Z 26003KT 05/02 A3002 RMK A01 T00470021  RH  083%=      5-min Rain = 0
KMC1 171046Z 25003KT 05/02 A3002 RMK A01 T00460020  RH  083%=      5-min Rain = 0
KMC1 171047Z 25003KT 05/02 A3002 RMK A01 T00460020  RH  083%=      5-min Rain = 0
KMC1 171048Z 26003KT 05/02 A3002 RMK A01 T00450019  RH  083%=      5-min Rain = 0
KMC1 171049Z 25003KT 05/02 A3002 RMK A01 T00450019  RH  084%=      5-min Rain = 0
KMC1 171050Z 25003KT 04/02 A3002 RMK A01 T00440019  RH  084%=      5-min Rain = 0
KMC1 171051Z 26003KT 04/02 A3002 RMK A01 T00440020  RH  084%=      5-min Rain = 0
KMC1 171052Z 25003KT 04/02 A3002 RMK A01 T00440020  RH  084%=      5-min Rain = 0
KMC1 171053Z 26003KT 04/02 A3002 RMK A01 T00440019  RH  084%=      5-min Rain = 0
KMC1 171054Z 25003KT 04/02 A3002 RMK A01 T00440019  RH  084%=      5-min Rain = 0
KMC1 171055Z 25003KT 04/02 A3002 RMK A01 T00440019  RH  084%=      5-min Rain = 0
KMC1 171056Z 25003KT 04/02 A3002 RMK A01 T00430019  RH  084%=      5-min Rain = 0
KMC1 171057Z 25003KT 04/02 A3002 RMK A01 T00430019  RH  084%=      5-min Rain = 0
KMC1 171058Z 25003KT 04/02 A3002 RMK A01 T00430019  RH  085%=      5-min Rain = 0
KMC1 171059Z 24003KT 04/02 A3002 RMK A01 T00430019  RH  085%=      5-min Rain = 0
KMC1 171100Z 24003KT 04/02 A3001 RMK A01 T00430020  RH  085%=      5-min Rain = 0
KMC1 171101Z 23004KT 04/02 A3001 RMK A01 T00430020  RH  085%=      5-min Rain = 0
KMC1 171102Z 23004KT 04/02 A3001 RMK A01 T00430020  RH  085%=      5-min Rain = 0
KMC1 171103Z 22004KT 04/02 A3001 RMK A01 T00430020  RH  085%=      5-min Rain = 0
KMC1 171104Z 22004KT 04/02 A3001 RMK A01 T00440020  RH  085%=      5-min Rain = 0
KMC1 171105Z 22004KT 04/02 A3001 RMK A01 T00440021  RH  085%=      5-min Rain = 0
KMC1 171106Z 22004KT 05/02 A3001 RMK A01 T00450022  RH  085%=      5-min Rain = 0
KMC1 171107Z 22004KT 05/02 A3001 RMK A01 T00460022  RH  084%=      5-min Rain = 0
KMC1 171108Z 22005KT 05/02 A3001 RMK A01 T00460021  RH  084%=      5-min Rain = 0
KMC1 171109Z 22005KT 05/02 A3001 RMK A01 T00460021  RH  084%=      5-min Rain = 0
KMC1 171110Z 22005KT 05/02 A3001 RMK A01 T00470022  RH  084%=      5-min Rain = 0
KMC1 171111Z 23004KT 05/02 A3001 RMK A01 T00470022  RH  083%=      5-min Rain = 0
KMC1 171112Z 23004KT 05/02 A3001 RMK A01 T00470021  RH  083%=      5-min Rain = 0
KMC1 171113Z 24004KT 05/02 A3001 RMK A01 T00470022  RH  083%=      5-min Rain = 0
KMC1 171114Z 24004KT 05/02 A3001 RMK A01 T00480022  RH  083%=      5-min Rain = 0
KMC1 171115Z 24004KT 05/02 A3001 RMK A01 T00480022  RH  083%=      5-min Rain = 0
KMC1 171116Z 24004KT 05/02 A3001 RMK A01 T00480022  RH  083%=      5-min Rain = 0
KMC1 171117Z 24004KT 05/02 A3001 RMK A01 T00480022  RH  083%=      5-min Rain = 0
KMC1 171118Z 23004KT 05/02 A3001 RMK A01 T00480022  RH  083%=      5-min Rain = 0
KMC1 171119Z 24004KT 05/02 A3001 RMK A01 T00480022  RH  083%=      5-min Rain = 0
KMC1 171120Z 24004KT 05/02 A3001 RMK A01 T00480022  RH  083%=      5-min Rain = 0
KMC1 171121Z 24003KT 05/02 A3001 RMK A01 T00480023  RH  084%=      5-min Rain = 0
KMC1 171122Z 25003KT 05/02 A3001 RMK A01 T00480023  RH  084%=      5-min Rain = 0
KMC1 171123Z 26003KT 05/02 A3001 RMK A01 T00480023  RH  084%=      5-min Rain = 0
KMC1 171124Z 26003KT 05/02 A3001 RMK A01 T00480022  RH  083%=      5-min Rain = 0
KMC1 171125Z 27003KT 05/02 A3001 RMK A01 T00470021  RH  083%=      5-min Rain = 0
KMC1 171126Z 27003KT 05/02 A3001 RMK A01 T00470021  RH  083%=      5-min Rain = 0
KMC1 171127Z 26003KT 05/02 A3001 RMK A01 T00460021  RH  084%=      5-min Rain = 0
KMC1 171128Z 25003KT 05/02 A3001 RMK A01 T00460021  RH  084%=      5-min Rain = 0
KMC1 171129Z 24003KT 05/02 A3001 RMK A01 T00460022  RH  085%=      5-min Rain = 0
KMC1 171130Z 24003KT 05/02 A3001 RMK A01 T00460022  RH  085%=      5-min Rain = 0
KMC1 171131Z 23004KT 05/02 A3001 RMK A01 T00460022  RH  085%=      5-min Rain = 0
KMC1 171132Z 23004KT 05/02 A3001 RMK A01 T00450021  RH  085%=      5-min Rain = 0
KMC1 171133Z 23004KT 05/02 A3001 RMK A01 T00450021  RH  085%=      5-min Rain = 0
KMC1 171134Z 22004KT 05/02 A3001 RMK A01 T00450022  RH  085%=      5-min Rain = 0
KMC1 171135Z 23004KT 04/02 A3001 RMK A01 T00440021  RH  085%=      5-min Rain = 0
KMC1 171136Z 23005KT 04/02 A3001 RMK A01 T00440022  RH  085%=      5-min Rain = 0
KMC1 171137Z 22005KT 05/02 A3001 RMK A01 T00450022  RH  085%=      5-min Rain = 0
KMC1 171138Z 21005KT 05/02 A3001 RMK A01 T00450022  RH  085%=      5-min Rain = 0
KMC1 171139Z 22005KT 05/02 A3001 RMK A01 T00450022  RH  085%=      5-min Rain = 0
KMC1 171140Z 22005KT 05/02 A3001 RMK A01 T00460023  RH  085%=      5-min Rain = 0
KMC1 171141Z 21005KT 05/02 A3001 RMK A01 T00460023  RH  085%=      5-min Rain = 0
KMC1 171142Z 21005KT 05/02 A3001 RMK A01 T00470024  RH  085%=      5-min Rain = 0
KMC1 171143Z 22005KT 05/02 A3001 RMK A01 T00480024  RH  085%=      5-min Rain = 0
KMC1 171144Z 22004KT 05/02 A3001 RMK A01 T00490024  RH  084%=      5-min Rain = 0
KMC1 171145Z 22004KT 05/02 A3001 RMK A01 T00490024  RH  084%=      5-min Rain = 0
KMC1 171146Z 23005KT 05/02 A3001 RMK A01 T00490024  RH  084%=      5-min Rain = 0
KMC1 171147Z 23004KT 05/02 A3001 RMK A01 T00500024  RH  084%=      5-min Rain = 0
KMC1 171148Z 22004KT 05/03 A3001 RMK A01 T00500025  RH  083%=      5-min Rain = 0
KMC1 171149Z 22003KT 05/02 A3001 RMK A01 T00500024  RH  083%=      5-min Rain = 0
KMC1 171150Z 22004KT 05/02 A3001 RMK A01 T00500024  RH  083%=      5-min Rain = 0
KMC1 171151Z 22004KT 05/02 A3001 RMK A01 T00500024  RH  083%=      5-min Rain = 0
KMC1 171152Z 23004KT 05/02 A3001 RMK A01 T00510024  RH  083%=      5-min Rain = 0
KMC1 171153Z 23003KT 05/02 A3001 RMK A01 T00500024  RH  083%=      5-min Rain = 0
KMC1 171154Z 24003KT 05/02 A3001 RMK A01 T00500024  RH  083%=      5-min Rain = 0
KMC1 171155Z 24003KT 05/02 A3001 RMK A01 T00500023  RH  083%=      5-min Rain = 0
KMC1 171156Z 24003KT 05/02 A3001 RMK A01 T00500023  RH  083%=      5-min Rain = 0
KMC1 171157Z 25003KT 05/02 A3001 RMK A01 T00490022  RH  083%=      5-min Rain = 0
KMC1 171158Z 25003KT 05/02 A3001 RMK A01 T00480022  RH  083%=      5-min Rain = 0
KMC1 171159Z 26003KT 05/02 A3001 RMK A01 T00470022  RH  083%=      5-min Rain = 0
KMC1 171200Z 26003KT 05/02 A3001 RMK A01 T00460021  RH  084%=      5-min Rain = 0
KMC1 171201Z 26003KT 05/02 A3001 RMK A01 T00460021  RH  084%=      5-min Rain = 0
KMC1 171202Z 26003KT 05/02 A3001 RMK A01 T00450021  RH  085%=      5-min Rain = 0
KMC1 171203Z 26004KT 04/02 A3001 RMK A01 T00440021  RH  085%=      5-min Rain = 0
KMC1 171204Z 25004KT 04/02 A3001 RMK A01 T00430021  RH  085%=      5-min Rain = 0
KMC1 171205Z 25004KT 04/02 A3001 RMK A01 T00420021  RH  086%=      5-min Rain = 0
KMC1 171206Z 25004KT 04/02 A3001 RMK A01 T00420021  RH  086%=      5-min Rain = 0
KMC1 171207Z 24004KT 04/02 A3001 RMK A01 T00410020  RH  086%=      5-min Rain = 0
KMC1 171208Z 23003KT 04/02 A3001 RMK A01 T00410020  RH  086%=      5-min Rain = 0
KMC1 171209Z 22003KT 04/02 A3001 RMK A01 T00400020  RH  087%=      5-min Rain = 0
KMC1 171210Z 22003KT 04/02 A3001 RMK A01 T00400020  RH  087%=      5-min Rain = 0
KMC1 171211Z 22003KT 04/02 A3001 RMK A01 T00390019  RH  087%=      5-min Rain = 0
KMC1 171212Z 22003KT 04/02 A3001 RMK A01 T00390021  RH  088%=      5-min Rain = 0
KMC1 171213Z 23002KT 04/02 A3001 RMK A01 T00390021  RH  088%=      5-min Rain = 0
KMC1 171214Z 23001KT 04/02 A3001 RMK A01 T00400021  RH  088%=      5-min Rain = 0
KMC1 171215Z 23002KT 04/02 A3001 RMK A01 T00390021  RH  088%=      5-min Rain = 0
KMC1 171216Z 24002KT 04/02 A3001 RMK A01 T00400022  RH  088%=      5-min Rain = 0
KMC1 171217Z 25002KT 04/02 A3001 RMK A01 T00400022  RH  089%=      5-min Rain = 0
KMC1 171218Z 27002KT 04/02 A3002 RMK A01 T00400023  RH  088%=      5-min Rain = 0
KMC1 171219Z 27002KT 04/02 A3002 RMK A01 T00410023  RH  088%=      5-min Rain = 0
KMC1 171220Z 28002KT 04/02 A3002 RMK A01 T00410023  RH  088%=      5-min Rain = 0
KMC1 171221Z 27002KT 04/02 A3002 RMK A01 T00410022  RH  087%=      5-min Rain = 0
KMC1 171222Z 26003KT 04/02 A3002 RMK A01 T00410021  RH  087%=      5-min Rain = 0
KMC1 171223Z 27003KT 04/02 A3002 RMK A01 T00410021  RH  087%=      5-min Rain = 0
KMC1 171224Z 27004KT 04/02 A3002 RMK A01 T00400021  RH  087%=      5-min Rain = 0
KMC1 171225Z 24003KT 04/02 A3002 RMK A01 T00400021  RH  087%=      5-min Rain = 0
KMC1 171226Z 23004KT 04/02 A3002 RMK A01 T00400023  RH  088%=      5-min Rain = 0
KMC1 171227Z 24004KT 04/03 A3002 RMK A01 T00430026  RH  089%=      5-min Rain = 0
KMC1 171228Z 25005KT 04/03 A3002 RMK A01 T00440025  RH  087%=      5-min Rain = 0
KMC1 171229Z 25004KT 04/02 A3002 RMK A01 T00440024  RH  087%=      5-min Rain = 0
KMC1 171230Z 24004KT 04/02 A3002 RMK A01 T00440024  RH  087%=      5-min Rain = 0
KMC1 171231Z 24005KT 04/02 A3002 RMK A01 T00440024  RH  087%=      5-min Rain = 0
KMC1 171232Z 25005KT 04/03 A3002 RMK A01 T00440025  RH  087%=      5-min Rain = 0
KMC1 171233Z 24005KT 05/03 A3002 RMK A01 T00450025  RH  087%=      5-min Rain = 0
KMC1 171234Z 24005KT 05/02 A3002 RMK A01 T00450024  RH  087%=      5-min Rain = 0
KMC1 171235Z 24005KT 05/02 A3002 RMK A01 T00450024  RH  087%=      5-min Rain = 0
KMC1 171236Z 24005KT 05/03 A3002 RMK A01 T00450025  RH  087%=      5-min Rain = 0
KMC1 171237Z 24005KT 05/03 A3002 RMK A01 T00450025  RH  087%=      5-min Rain = 0
KMC1 171238Z 24004KT 05/03 A3002 RMK A01 T00450025  RH  087%=      5-min Rain = 0
KMC1 171239Z 24005KT 05/03 A3002 RMK A01 T00450025  RH  087%=      5-min Rain = 0
KMC1 171240Z 23005KT 05/03 A3002 RMK A01 T00450025  RH  087%=      5-min Rain = 0
KMC1 171241Z 23005KT 05/03 A3002 RMK A01 T00450026  RH  087%=      5-min Rain = 0
KMC1 171242Z 23004KT 05/03 A3002 RMK A01 T00460027  RH  087%=      5-min Rain = 0
KMC1 171243Z 23005KT 05/03 A3002 RMK A01 T00470028  RH  087%=      5-min Rain = 0
KMC1 171244Z 23004KT 05/03 A3002 RMK A01 T00480029  RH  087%=      5-min Rain = 0
KMC1 171245Z 23004KT 05/03 A3002 RMK A01 T00490029  RH  087%=      5-min Rain = 0
KMC1 171246Z 23004KT 05/03 A3002 RMK A01 T00490029  RH  087%=      5-min Rain = 0
KMC1 171247Z 23004KT 05/03 A3002 RMK A01 T00500029  RH  087%=      5-min Rain = 0
KMC1 171248Z 23004KT 05/03 A3002 RMK A01 T00500029  RH  086%=      5-min Rain = 0
KMC1 171249Z 24004KT 05/03 A3002 RMK A01 T00500029  RH  086%=      5-min Rain = 0
KMC1 171250Z 23004KT 05/03 A3002 RMK A01 T00510030  RH  086%=      5-min Rain = 0
KMC1 171251Z 23005KT 05/03 A3002 RMK A01 T00510029  RH  086%=      5-min Rain = 0
KMC1 171252Z 23005KT 05/03 A3002 RMK A01 T00510030  RH  086%=      5-min Rain = 0
KMC1 171253Z 23004KT 05/03 A3002 RMK A01 T00510030  RH  086%=      5-min Rain = 0
KMC1 171254Z 23005KT 05/03 A3002 RMK A01 T00520031  RH  086%=      5-min Rain = 0
KMC1 171255Z 23005KT 05/03 A3002 RMK A01 T00520031  RH  086%=      5-min Rain = 0
KMC1 171256Z 23004KT 05/03 A3002 RMK A01 T00530031  RH  086%=      5-min Rain = 0
KMC1 171257Z 23005KT 05/03 A3002 RMK A01 T00530032  RH  086%=      5-min Rain = 0
KMC1 171258Z 24005KT 05/03 A3002 RMK A01 T00540032  RH  086%=      5-min Rain = 0
KMC1 171259Z 24004KT 06/03 A3002 RMK A01 T00550033  RH  086%=      5-min Rain = 0
KMC1 171300Z 24003KT 06/03 A3002 RMK A01 T00550033  RH  086%=      5-min Rain = 0
KMC1 171301Z 24004KT 06/03 A3002 RMK A01 T00560033  RH  085%=      5-min Rain = 0
KMC1 171302Z 24004KT 06/03 A3002 RMK A01 T00560033  RH  085%=      5-min Rain = 0
KMC1 171303Z 25004KT 06/03 A3003 RMK A01 T00560033  RH  085%=      5-min Rain = 0
KMC1 171304Z 25004KT 06/03 A3003 RMK A01 T00560033  RH  085%=      5-min Rain = 0
KMC1 171305Z 26004KT 06/03 A3003 RMK A01 T00560033  RH  085%=      5-min Rain = 0
KMC1 171306Z 26004KT 06/03 A3003 RMK A01 T00560033  RH  085%=      5-min Rain = 0
KMC1 171307Z 26004KT 06/03 A3003 RMK A01 T00560033  RH  085%=      5-min Rain = 0
KMC1 171308Z 26004KT 06/03 A3003 RMK A01 T00560034  RH  085%=      5-min Rain = 0
KMC1 171309Z 26004KT 06/03 A3003 RMK A01 T00560034  RH  086%=      5-min Rain = 0
KMC1 171310Z 25005KT 06/03 A3003 RMK A01 T00560034  RH  086%=      5-min Rain = 0
KMC1 171311Z 24005KT 06/03 A3003 RMK A01 T00560034  RH  086%=      5-min Rain = 0
KMC1 171312Z 24005KT 06/04 A3003 RMK A01 T00560035  RH  086%=      5-min Rain = 0
KMC1 171313Z 23004KT 06/03 A3003 RMK A01 T00550034  RH  086%=      5-min Rain = 0
KMC1 171314Z 23005KT 06/03 A3003 RMK A01 T00550034  RH  087%=      5-min Rain = 0
KMC1 171315Z 23005KT 05/03 A3003 RMK A01 T00540034  RH  087%=      5-min Rain = 0
KMC1 171316Z 22005KT 06/04 A3003 RMK A01 T00550036  RH  087%=      5-min Rain = 0
KMC1 171317Z 22006KT 06/04 A3003 RMK A01 T00560037  RH  088%=      5-min Rain = 0
KMC1 171318Z 22005KT 06/04 A3003 RMK A01 T00560037  RH  087%=      5-min Rain = 0
KMC1 171319Z 22004KT 06/04 A3003 RMK A01 T00570038  RH  088%=      5-min Rain = 0
KMC1 171320Z 22005KT 06/04 A3003 RMK A01 T00570038  RH  088%=      5-min Rain = 0
KMC1 171321Z 23004KT 06/04 A3003 RMK A01 T00580039  RH  088%=      5-min Rain = 0
KMC1 171322Z 24004KT 06/04 A3003 RMK A01 T00590039  RH  087%=      5-min Rain = 0
KMC1 171323Z 24004KT 06/04 A3003 RMK A01 T00590039  RH  087%=      5-min Rain = 0
KMC1 171324Z 24004KT 06/04 A3003 RMK A01 T00590040  RH  087%=      5-min Rain = 0
KMC1 171325Z 24004KT 06/04 A3003 RMK A01 T00600040  RH  087%=      5-min Rain = 0
KMC1 171326Z 24004KT 06/04 A3003 RMK A01 T00600040  RH  087%=      5-min Rain = 0
KMC1 171327Z 24003KT 06/04 A3003 RMK A01 T00600040  RH  087%=      5-min Rain = 0
KMC1 171328Z 25004KT 06/04 A3003 RMK A01 T00600040  RH  087%=      5-min Rain = 0
KMC1 171329Z 25005KT 06/04 A3003 RMK A01 T00600041  RH  087%=      5-min Rain = 0
KMC1 171330Z 25004KT 06/04 A3003 RMK A01 T00600041  RH  087%=      5-min Rain = 0
KMC1 171331Z 25004KT 06/04 A3003 RMK A01 T00600041  RH  088%=      5-min Rain = 0
KMC1 171332Z 25004KT 06/04 A3003 RMK A01 T00600041  RH  088%=      5-min Rain = 0
KMC1 171333Z 24004KT 06/04 A3003 RMK A01 T00610042  RH  088%=      5-min Rain = 0
KMC1 171334Z 24003KT 06/04 A3003 RMK A01 T00620042  RH  087%=      5-min Rain = 0
KMC1 171335Z 23003KT 06/04 A3003 RMK A01 T00620042  RH  087%=      5-min Rain = 0
KMC1 171336Z 23004KT 06/04 A3003 RMK A01 T00620042  RH  087%=      5-min Rain = 0
KMC1 171337Z 22004KT 06/04 A3003 RMK A01 T00630043  RH  087%=      5-min Rain = 0
KMC1 171338Z 22004KT 06/04 A3003 RMK A01 T00640044  RH  087%=      5-min Rain = 0
KMC1 171339Z 22005KT 06/04 A3003 RMK A01 T00640044  RH  087%=      5-min Rain = 0
KMC1 171340Z 22005KT 07/05 A3003 RMK A01 T00650045  RH  087%=      5-min Rain = 0
KMC1 171341Z 22005KT 07/05 A3003 RMK A01 T00660046  RH  087%=      5-min Rain = 0
KMC1 171342Z 22005KT 07/05 A3004 RMK A01 T00670048  RH  087%=      5-min Rain = 0
KMC1 171343Z 22006KT 07/05 A3004 RMK A01 T00690049  RH  087%=      5-min Rain = 0
KMC1 171344Z 22004KT 07/05 A3004 RMK A01 T00700049  RH  087%=      5-min Rain = 0
KMC1 171345Z 22004KT 07/05 A3004 RMK A01 T00710050  RH  086%=      5-min Rain = 0
KMC1 171346Z 21006KT 07/05 A3004 RMK A01 T00720050  RH  086%=      5-min Rain = 0
KMC1 171347Z 22004KT 07/05 A3004 RMK A01 T00730051  RH  086%=      5-min Rain = 0
KMC1 171348Z 21005KT 07/05 A3003 RMK A01 T00740052  RH  086%=      5-min Rain = 0
KMC1 171349Z 21004KT 08/05 A3003 RMK A01 T00750053  RH  086%=      5-min Rain = 0
KMC1 171350Z 20004KT 08/05 A3003 RMK A01 T00760054  RH  086%=      5-min Rain = 0
KMC1 171351Z 20005KT 08/06 A3003 RMK A01 T00770055  RH  086%=      5-min Rain = 0
KMC1 171352Z 20005KT 08/06 A3003 RMK A01 T00780056  RH  086%=      5-min Rain = 0
KMC1 171353Z 19006KT 08/06 A3003 RMK A01 T00780057  RH  086%=      5-min Rain = 0
KMC1 171354Z 19004KT 08/06 A3003 RMK A01 T00790057  RH  086%=      5-min Rain = 0
KMC1 171355Z 19004KT 08/06 A3003 RMK A01 T00800058  RH  086%=      5-min Rain = 0
KMC1 171356Z 21004KT 08/06 A3003 RMK A01 T00800058  RH  086%=      5-min Rain = 0
KMC1 171357Z 20005KT 08/06 A3003 RMK A01 T00800059  RH  086%=      5-min Rain = 0
KMC1 171358Z 21004KT 08/06 A3003 RMK A01 T00810059  RH  086%=      5-min Rain = 0
KMC1 171359Z 22004KT 08/06 A3003 RMK A01 T00810059  RH  086%=      5-min Rain = 0
KMC1 171400Z 23003KT 08/06 A3004 RMK A01 T00810059  RH  086%=      5-min Rain = 0
KMC1 171401Z 23004KT 08/06 A3004 RMK A01 T00820060  RH  086%=      5-min Rain = 0
KMC1 171402Z 22005KT 08/06 A3004 RMK A01 T00820060  RH  086%=      5-min Rain = 0
KMC1 171403Z 23004KT 08/06 A3004 RMK A01 T00820060  RH  086%=      5-min Rain = 0
KMC1 171404Z 23004KT 08/06 A3004 RMK A01 T00830061  RH  086%=      5-min Rain = 0
KMC1 171405Z 24004KT 08/06 A3004 RMK A01 T00840062  RH  086%=      5-min Rain = 0
KMC1 171406Z 23003KT 08/06 A3004 RMK A01 T00840062  RH  086%=      5-min Rain = 0
KMC1 171407Z 22004KT 09/06 A3004 RMK A01 T00850063  RH  086%=      5-min Rain = 0
KMC1 171408Z 21003KT 09/06 A3004 RMK A01 T00850063  RH  086%=      5-min Rain = 0
KMC1 171409Z 21004KT 09/06 A3004 RMK A01 T00850064  RH  086%=      5-min Rain = 0
KMC1 171410Z 20005KT 09/06 A3004 RMK A01 T00860064  RH  086%=      5-min Rain = 0
KMC1 171411Z 22004KT 09/07 A3004 RMK A01 T00870065  RH  086%=      5-min Rain = 0
KMC1 171412Z 21003KT 09/07 A3004 RMK A01 T00870066  RH  087%=      5-min Rain = 0
KMC1 171413Z 21004KT 09/07 A3004 RMK A01 T00870066  RH  086%=      5-min Rain = 0
KMC1 171414Z 21005KT 09/07 A3004 RMK A01 T00880067  RH  086%=      5-min Rain = 0
KMC1 171415Z 20003KT 09/07 A3004 RMK A01 T00880067  RH  087%=      5-min Rain = 0
KMC1 171416Z 21002KT 09/07 A3004 RMK A01 T00890068  RH  087%=      5-min Rain = 0
KMC1 171417Z 21002KT 09/07 A3004 RMK A01 T00900068  RH  086%=      5-min Rain = 0
KMC1 171418Z 21003KT 09/07 A3004 RMK A01 T00900068  RH  086%=      5-min Rain = 0
KMC1 171419Z 23003KT 09/07 A3004 RMK A01 T00900069  RH  086%=      5-min Rain = 0
KMC1 171420Z 21003KT 09/07 A3005 RMK A01 T00910070  RH  087%=      5-min Rain = 0
KMC1 171421Z 23003KT 09/07 A3004 RMK A01 T00920071  RH  087%=      5-min Rain = 0
KMC1 171422Z 23002KT 09/07 A3004 RMK A01 T00920071  RH  087%=      5-min Rain = 0
KMC1 171423Z 22003KT 09/07 A3004 RMK A01 T00920071  RH  086%=      5-min Rain = 0
KMC1 171424Z 23004KT 09/07 A3004 RMK A01 T00930071  RH  086%=      5-min Rain = 0
KMC1 171425Z 24003KT 09/07 A3005 RMK A01 T00940072  RH  086%=      5-min Rain = 0
KMC1 171426Z 22005KT 09/07 A3005 RMK A01 T00940073  RH  087%=      5-min Rain = 0
KMC1 171427Z 22007KT 10/07 A3005 RMK A01 T00950074  RH  087%=      5-min Rain = 0
KMC1 171428Z 23005KT 10/08 A3005 RMK A01 T00960075  RH  087%=      5-min Rain = 0
KMC1 171429Z 24004KT 10/08 A3005 RMK A01 T00970075  RH  086%=      5-min Rain = 0
KMC1 171430Z 23005KT 10/08 A3005 RMK A01 T00970075  RH  086%=      5-min Rain = 0
KMC1 171431Z 25003KT 10/08 A3005 RMK A01 T00970075  RH  086%=      5-min Rain = 0
KMC1 171432Z 23003KT 10/08 A3005 RMK A01 T00980076  RH  086%=      5-min Rain = 0
KMC1 171433Z 23005KT 10/08 A3005 RMK A01 T00980076  RH  086%=      5-min Rain = 0
KMC1 171434Z 23004KT 10/08 A3005 RMK A01 T00990076  RH  086%=      5-min Rain = 0
KMC1 171435Z 22004KT 10/08 A3005 RMK A01 T00990077  RH  086%=      5-min Rain = 0
KMC1 171436Z 24004KT 10/08 A3005 RMK A01 T00990077  RH  086%=      5-min Rain = 0
KMC1 171437Z 23005KT 10/08 A3005 RMK A01 T00980077  RH  086%=      5-min Rain = 0
KMC1 171438Z 24004KT 10/08 A3006 RMK A01 T00990077  RH  087%=      5-min Rain = 0
KMC1 171439Z 24004KT 10/08 A3006 RMK A01 T00990078  RH  087%=      5-min Rain = 0
KMC1 171440Z 22004KT 10/08 A3006 RMK A01 T01000080  RH  087%=      5-min Rain = 0
KMC1 171441Z 22003KT 10/08 A3006 RMK A01 T01010081  RH  087%=      5-min Rain = 0
KMC1 171442Z 23004KT 10/08 A3006 RMK A01 T01030081  RH  087%=      5-min Rain = 0
KMC1 171443Z 23005KT 10/08 A3006 RMK A01 T01040082  RH  086%=      5-min Rain = 0
KMC1 171444Z 23004KT 11/08 A3006 RMK A01 T01050082  RH  086%=      5-min Rain = 0
KMC1 171445Z 22005KT 11/08 A3007 RMK A01 T01060083  RH  086%=      5-min Rain = 0
KMC1 171446Z 23005KT 11/08 A3007 RMK A01 T01070082  RH  085%=      5-min Rain = 0
KMC1 171447Z 23006KT 11/08 A3007 RMK A01 T01080083  RH  085%=      5-min Rain = 0
KMC1 171448Z 23006KT 11/08 A3007 RMK A01 T01090083  RH  084%=      5-min Rain = 0
KMC1 171449Z 22005KT 11/08 A3007 RMK A01 T01090083  RH  084%=      5-min Rain = 0
KMC1 171450Z 24005KT 11/08 A3007 RMK A01 T01090083  RH  084%=      5-min Rain = 0
KMC1 171451Z 23006KT 11/08 A3007 RMK A01 T01100083  RH  084%=      5-min Rain = 0
KMC1 171452Z 22007KT 11/08 A3007 RMK A01 T01110083  RH  083%=      5-min Rain = 0
KMC1 171453Z 22006KT 11/08 A3007 RMK A01 T01110083  RH  083%=      5-min Rain = 0
KMC1 171454Z 22006KT 11/08 A3007 RMK A01 T01110083  RH  083%=      5-min Rain = 0
KMC1 171455Z 22006KT 11/08 A3007 RMK A01 T01120083  RH  083%=      5-min Rain = 0
KMC1 171456Z 22007KT 11/08 A3007 RMK A01 T01120083  RH  082%=      5-min Rain = 0
KMC1 171457Z 22005KT 11/08 A3007 RMK A01 T01120083  RH  082%=      5-min Rain = 0
KMC1 171458Z 22004KT 11/08 A3007 RMK A01 T01130084  RH  082%=      5-min Rain = 0
KMC1 171459Z 22004KT 11/08 A3007 RMK A01 T01140084  RH  082%=      5-min Rain = 0
KMC1 171500Z 22007KT 11/08 A3008 RMK A01 T01140084  RH  082%=      5-min Rain = 0
KMC1 171501Z 21011KT 11/08 A3008 RMK A01 T01140083  RH  081%=      5-min Rain = 0
KMC1 171502Z 22009KT 11/08 A3008 RMK A01 T01140082  RH  081%=      5-min Rain = 0
KMC1 171503Z 22009KT 11/08 A3008 RMK A01 T01140082  RH  081%=      5-min Rain = 0
KMC1 171504Z 24008KT 12/08 A3008 RMK A01 T01150083  RH  081%=      5-min Rain = 0
KMC1 171505Z 24008KT 12/08 A3008 RMK A01 T01150083  RH  080%=      5-min Rain = 0
KMC1 171506Z 23005KT 12/08 A3008 RMK A01 T01160083  RH  080%=      5-min Rain = 0
KMC1 171507Z 23006KT 12/08 A3008 RMK A01 T01180084  RH  080%=      5-min Rain = 0
KMC1 171508Z 22007KT 12/08 A3008 RMK A01 T01190083  RH  079%=      5-min Rain = 0
KMC1 171509Z 22006KT 12/08 A3008 RMK A01 T01190083  RH  079%=      5-min Rain = 0
KMC1 171510Z 22006KT 12/08 A3008 RMK A01 T01200083  RH  078%=      5-min Rain = 0
KMC1 171511Z 21006KT 12/08 A3008 RMK A01 T01200083  RH  078%=      5-min Rain = 0
KMC1 171512Z 21005KT 12/09 A3008 RMK A01 T01210085  RH  078%=      5-min Rain = 0
KMC1 171513Z 21003KT 12/09 A3007 RMK A01 T01220085  RH  078%=      5-min Rain = 0
KMC1 171514Z 21005KT 13/09 A3007 RMK A01 T01250086  RH  077%=      5-min Rain = 0
KMC1 171515Z 20006KT 13/08 A3007 RMK A01 T01250084  RH  076%=      5-min Rain = 0
KMC1 171516Z 21004KT 13/08 A3007 RMK A01 T01250083  RH  076%=      5-min Rain = 0
KMC1 171517Z 20005KT 12/08 A3007 RMK A01 T01240084  RH  076%=      5-min Rain = 0
KMC1 171518Z 21006KT 13/08 A3007 RMK A01 T01250084  RH  076%=      5-min Rain = 0
KMC1 171519Z 21006KT 13/08 A3007 RMK A01 T01250083  RH  075%=      5-min Rain = 0
KMC1 171520Z 19007KT 13/08 A3007 RMK A01 T01250084  RH  076%=      5-min Rain = 0
KMC1 171521Z 19005KT 13/08 A3007 RMK A01 T01260084  RH  076%=      5-min Rain = 0
KMC1 171522Z 20006KT 13/08 A3007 RMK A01 T01270083  RH  075%=      5-min Rain = 0
KMC1 171523Z 20007KT 13/08 A3007 RMK A01 T01270084  RH  075%=      5-min Rain = 0
KMC1 171524Z 22005KT 13/08 A3007 RMK A01 T01280084  RH  075%=      5-min Rain = 0
KMC1 171525Z 22005KT 13/09 A3007 RMK A01 T01290085  RH  075%=      5-min Rain = 0
KMC1 171526Z 23007KT 13/08 A3007 RMK A01 T01290083  RH  073%=      5-min Rain = 0
KMC1 171527Z 22009KT 13/08 A3007 RMK A01 T01290082  RH  073%=      5-min Rain = 0
KMC1 171528Z 22007KT 13/08 A3007 RMK A01 T01280083  RH  074%=      5-min Rain = 0
KMC1 171529Z 20006KT 13/08 A3007 RMK A01 T01290083  RH  074%=      5-min Rain = 0
KMC1 171530Z 21007G12KT 13/08 A3007 RMK A01 T01310084  RH  073%=      5-min Rain = 0
KMC1 171531Z 21010KT 13/08 A3007 RMK A01 T01320083  RH  072%=      5-min Rain = 0
KMC1 171532Z 20008KT 13/08 A3007 RMK A01 T01300081  RH  072%=      5-min Rain = 0
KMC1 171533Z 22005KT 13/08 A3007 RMK A01 T01300083  RH  073%=      5-min Rain = 0
KMC1 171534Z 20007KT 13/08 A3007 RMK A01 T01310084  RH  073%=      5-min Rain = 0
KMC1 171535Z 21007KT 13/08 A3007 RMK A01 T01330083  RH  072%=      5-min Rain = 0
KMC1 171536Z 21007KT 13/08 A3008 RMK A01 T01330082  RH  071%=      5-min Rain = 0
KMC1 171537Z 22006KT 13/08 A3008 RMK A01 T01320082  RH  072%=      5-min Rain = 0
KMC1 171538Z 20008KT 13/08 A3008 RMK A01 T01320083  RH  072%=      5-min Rain = 0
KMC1 171539Z 22008KT 13/08 A3008 RMK A01 T01330081  RH  071%=      5-min Rain = 0
KMC1 171540Z 22005KT 13/08 A3008 RMK A01 T01320083  RH  072%=      5-min Rain = 0
KMC1 171541Z 22005KT 13/09 A3008 RMK A01 T01340085  RH  072%=      5-min Rain = 0
KMC1 171542Z 21006KT 14/08 A3008 RMK A01 T01360084  RH  071%=      5-min Rain = 0
KMC1 171543Z 21007KT 14/08 A3008 RMK A01 T01360083  RH  071%=      5-min Rain = 0
KMC1 171544Z 21006KT 14/08 A3008 RMK A01 T01360083  RH  070%=      5-min Rain = 0
KMC1 171545Z 19005KT 14/08 A3008 RMK A01 T01360084  RH  071%=      5-min Rain = 0
KMC1 171546Z 22006KT 14/08 A3008 RMK A01 T01380084  RH  070%=      5-min Rain = 0
KMC1 171547Z 21005KT 14/08 A3008 RMK A01 T01380083  RH  069%=      5-min Rain = 0
KMC1 171548Z 21005KT 14/09 A3008 RMK A01 T01400086  RH  070%=      5-min Rain = 0
KMC1 171549Z 21006KT 14/09 A3008 RMK A01 T01410085  RH  069%=      5-min Rain = 0
KMC1 171550Z 20005KT 14/08 A3008 RMK A01 T01420084  RH  068%=      5-min Rain = 0
KMC1 171551Z 21003KT 14/08 A3008 RMK A01 T01420084  RH  068%=      5-min Rain = 0
KMC1 171552Z 23005KT 14/09 A3008 RMK A01 T01410085  RH  069%=      5-min Rain = 0
KMC1 171553Z 22006KT 14/09 A3008 RMK A01 T01420085  RH  068%=      5-min Rain = 0
KMC1 171554Z 21006KT 14/08 A3008 RMK A01 T01410083  RH  068%=      5-min Rain = 0
KMC1 171555Z 20005KT 14/08 A3008 RMK A01 T01400083  RH  068%=      5-min Rain = 0
KMC1 171556Z 21005KT 14/08 A3008 RMK A01 T01400084  RH  069%=      5-min Rain = 0
KMC1 171557Z 20006KT 14/08 A3008 RMK A01 T01400084  RH  069%=      5-min Rain = 0
KMC1 171558Z 21006KT 14/08 A3008 RMK A01 T01410084  RH  068%=      5-min Rain = 0
KMC1 171559Z 20005KT 14/09 A3008 RMK A01 T01430085  RH  068%=      5-min Rain = 0
KMC1 171600Z 20003KT 14/09 A3008 RMK A01 T01440085  RH  067%=      5-min Rain = 0
KMC1 171601Z 24003KT 15/09 A3008 RMK A01 T01450086  RH  068%=      5-min Rain = 0
KMC1 171602Z 24005KT 15/09 A3008 RMK A01 T01470087  RH  067%=      5-min Rain = 0
KMC1 171603Z 22006KT 15/09 A3008 RMK A01 T01480086  RH  066%=      5-min Rain = 0
KMC1 171604Z 24006KT 15/09 A3008 RMK A01 T01490086  RH  066%=      5-min Rain = 0
KMC1 171605Z 25007KT 15/08 A3008 RMK A01 T01490084  RH  065%=      5-min Rain = 0
KMC1 171606Z 23007KT 15/08 A3008 RMK A01 T01470084  RH  066%=      5-min Rain = 0
KMC1 171607Z 24007KT 15/08 A3008 RMK A01 T01460084  RH  066%=      5-min Rain = 0
KMC1 171608Z 23007KT 15/08 A3008 RMK A01 T01460084  RH  066%=      5-min Rain = 0
KMC1 171609Z 26005KT 15/09 A3008 RMK A01 T01470085  RH  066%=      5-min Rain = 0
KMC1 171610Z 26008KT 15/08 A3008 RMK A01 T01490084  RH  065%=      5-min Rain = 0
KMC1 171611Z 26008KT 15/08 A3008 RMK A01 T01490084  RH  065%=      5-min Rain = 0
KMC1 171612Z 25009KT 15/08 A3008 RMK A01 T01500083  RH  064%=      5-min Rain = 0
KMC1 171613Z 23007KT 15/08 A3008 RMK A01 T01490083  RH  064%=      5-min Rain = 0
KMC1 171614Z 23006KT 15/08 A3008 RMK A01 T01480083  RH  065%=      5-min Rain = 0
KMC1 171615Z 22005KT 15/08 A3008 RMK A01 T01490083  RH  065%=      5-min Rain = 0
KMC1 171616Z 21005KT 15/08 A3008 RMK A01 T01490083  RH  065%=      5-min Rain = 0
KMC1 171617Z 24004KT 15/09 A3008 RMK A01 T01500085  RH  065%=      5-min Rain = 0
KMC1 171618Z 24006KT 15/09 A3008 RMK A01 T01530087  RH  065%=      5-min Rain = 0
KMC1 171619Z 25005KT 15/09 A3008 RMK A01 T01540085  RH  064%=      5-min Rain = 0
KMC1 171620Z 24005KT 15/09 A3008 RMK A01 T01530085  RH  064%=      5-min Rain = 0
KMC1 171621Z 24005KT 15/09 A3008 RMK A01 T01530085  RH  064%=      5-min Rain = 0
KMC1 171622Z 24005KT 15/09 A3008 RMK A01 T01530086  RH  064%=      5-min Rain = 0
KMC1 171623Z 25004KT 15/09 A3008 RMK A01 T01540086  RH  064%=      5-min Rain = 0
KMC1 171624Z 25008KT 16/09 A3008 RMK A01 T01550086  RH  063%=      5-min Rain = 0
KMC1 171625Z 24006KT 15/08 A3008 RMK A01 T01540084  RH  063%=      5-min Rain = 0
KMC1 171626Z 26006KT 15/08 A3008 RMK A01 T01520084  RH  064%=      5-min Rain = 0
KMC1 171627Z 25008KT 15/09 A3008 RMK A01 T01520085  RH  064%=      5-min Rain = 0
KMC1 171628Z 27006KT 15/08 A3008 RMK A01 T01520084  RH  063%=      5-min Rain = 0
KMC1 171629Z 23005KT 15/08 A3008 RMK A01 T01530083  RH  063%=      5-min Rain = 0
KMC1 171630Z 22006G11KT 15/08 A3008 RMK A01 T01530082  RH  063%=      5-min Rain = 0
KMC1 171631Z 24007KT 15/08 A3008 RMK A01 T01530082  RH  063%=      5-min Rain = 0
KMC1 171632Z 22007G12KT 15/08 A3008 RMK A01 T01530082  RH  063%=      5-min Rain = 0
KMC1 171633Z 23009KT 15/08 A3008 RMK A01 T01530081  RH  062%=      5-min Rain = 0
KMC1 171634Z 24007KT 15/08 A3008 RMK A01 T01530080  RH  062%=      5-min Rain = 0
KMC1 171635Z 23006KT 15/08 A3008 RMK A01 T01520080  RH  062%=      5-min Rain = 0
KMC1 171636Z 23005KT 15/08 A3008 RMK A01 T01510080  RH  062%=      5-min Rain = 0
KMC1 171637Z 24003KT 15/08 A3008 RMK A01 T01520081  RH  063%=      5-min Rain = 0
KMC1 171638Z 22007KT 16/08 A3008 RMK A01 T01550083  RH  062%=      5-min Rain = 0
KMC1 171639Z 22006KT 16/08 A3008 RMK A01 T01560080  RH  060%=      5-min Rain = 0
KMC1 171640Z 24006KT 15/08 A3008 RMK A01 T01540081  RH  062%=      5-min Rain = 0
KMC1 171641Z 24006KT 15/08 A3008 RMK A01 T01540080  RH  061%=      5-min Rain = 0
KMC1 171642Z 24007KT 15/08 A3008 RMK A01 T01540080  RH  061%=      5-min Rain = 0
KMC1 171643Z 24006KT 15/08 A3008 RMK A01 T01530078  RH  061%=      5-min Rain = 0
KMC1 171644Z 26004KT 15/08 A3008 RMK A01 T01530078  RH  061%=      5-min Rain = 0
KMC1 171645Z 24004KT 15/08 A3008 RMK A01 T01540079  RH  061%=      5-min Rain = 0
KMC1 171646Z 22006KT 15/08 A3008 RMK A01 T01540079  RH  061%=      5-min Rain = 0
KMC1 171647Z 23005KT 15/08 A3008 RMK A01 T01540079  RH  061%=      5-min Rain = 0
KMC1 171648Z 23006KT 15/08 A3008 RMK A01 T01540079  RH  061%=      5-min Rain = 0
KMC1 171649Z 23004KT 15/08 A3008 RMK A01 T01530079  RH  061%=      5-min Rain = 0
KMC1 171650Z 28004KT 15/08 A3008 RMK A01 T01530081  RH  062%=      5-min Rain = 0
KMC1 171651Z 26006KT 16/08 A3008 RMK A01 T01560081  RH  061%=      5-min Rain = 0
KMC1 171652Z 26005KT 16/08 A3008 RMK A01 T01570077  RH  059%=      5-min Rain = 0
KMC1 171653Z 26006KT 16/08 A3008 RMK A01 T01570079  RH  060%=      5-min Rain = 0
KMC1 171654Z 26006KT 16/08 A3008 RMK A01 T01580078  RH  059%=      5-min Rain = 0
KMC1 171655Z 26006KT 16/08 A3008 RMK A01 T01580078  RH  059%=      5-min Rain = 0
KMC1 171656Z 25005KT 16/08 A3008 RMK A01 T01590080  RH  060%=      5-min Rain = 0
KMC1 171657Z 26005KT 16/08 A3008 RMK A01 T01610079  RH  058%=      5-min Rain = 0
KMC1 171658Z 27006KT 16/08 A3008 RMK A01 T01610078  RH  058%=      5-min Rain = 0
KMC1 171659Z 27007KT 16/08 A3008 RMK A01 T01610079  RH  058%=      5-min Rain = 0
KMC1 171700Z 28007KT 16/08 A3008 RMK A01 T01610078  RH  058%=      5-min Rain = 0
KMC1 171701Z 27006KT 16/08 A3008 RMK A01 T01610079  RH  058%=      5-min Rain = 0
KMC1 171702Z 26006KT 16/08 A3008 RMK A01 T01630080  RH  058%=      5-min Rain = 0
KMC1 171703Z 25007KT 16/08 A3008 RMK A01 T01640078  RH  057%=      5-min Rain = 0
KMC1 171704Z 25008KT 16/08 A3008 RMK A01 T01630078  RH  057%=      5-min Rain = 0
KMC1 171705Z 24005KT 16/08 A3008 RMK A01 T01630077  RH  057%=      5-min Rain = 0
KMC1 171706Z 23005KT 16/08 A3008 RMK A01 T01620078  RH  058%=      5-min Rain = 0
KMC1 171707Z 23006KT 16/08 A3008 RMK A01 T01630080  RH  058%=      5-min Rain = 0
KMC1 171708Z 23005KT 16/08 A3008 RMK A01 T01640078  RH  057%=      5-min Rain = 0
KMC1 171709Z 23008KT 17/08 A3008 RMK A01 T01650078  RH  057%=      5-min Rain = 0
KMC1 171710Z 23004KT 17/08 A3008 RMK A01 T01650078  RH  056%=      5-min Rain = 0
KMC1 171711Z 25004KT 17/08 A3008 RMK A01 T01660079  RH  056%=      5-min Rain = 0
KMC1 171712Z 23006KT 17/08 A3008 RMK A01 T01680079  RH  056%=      5-min Rain = 0
KMC1 171713Z 24007KT 17/08 A3008 RMK A01 T01690077  RH  054%=      5-min Rain = 0
KMC1 171714Z 25006KT 17/08 A3008 RMK A01 T01690077  RH  055%=      5-min Rain = 0
KMC1 171715Z 25010KT 17/08 A3008 RMK A01 T01710077  RH  054%=      5-min Rain = 0
KMC1 171716Z 26008KT 17/08 A3008 RMK A01 T01700076  RH  054%=      5-min Rain = 0
KMC1 171717Z 26008KT 17/08 A3008 RMK A01 T01700076  RH  054%=      5-min Rain = 0
KMC1 171718Z 26007KT 17/08 A3008 RMK A01 T01690076  RH  054%=      5-min Rain = 0
KMC1 171719Z 28005KT 17/08 A3008 RMK A01 T01680075  RH  054%=      5-min Rain = 0
KMC1 171720Z 27006KT 17/08 A3008 RMK A01 T01680075  RH  054%=      5-min Rain = 0
KMC1 171721Z 25005KT 17/08 A3008 RMK A01 T01680075  RH  054%=      5-min Rain = 0
KMC1 171722Z 28008KT 17/08 A3008 RMK A01 T01670075  RH  054%=      5-min Rain = 0
KMC1 171723Z 26006KT 17/07 A3008 RMK A01 T01670074  RH  054%=      5-min Rain = 0
KMC1 171724Z 27006KT 17/07 A3008 RMK A01 T01680074  RH  054%=      5-min Rain = 0
KMC1 171725Z 30006KT 17/07 A3008 RMK A01 T01700074  RH  053%=      5-min Rain = 0
KMC1 171726Z 27007KT 17/07 A3008 RMK A01 T01720074  RH  052%=      5-min Rain = 0
KMC1 171727Z 28006KT 17/07 A3007 RMK A01 T01740072  RH  051%=      5-min Rain = 0
KMC1 171728Z 29006KT 17/07 A3008 RMK A01 T01720071  RH  051%=      5-min Rain = 0
KMC1 171729Z 27006KT 17/07 A3007 RMK A01 T01700070  RH  052%=      5-min Rain = 0
KMC1 171730Z 27006KT 17/07 A3007 RMK A01 T01690070  RH  052%=      5-min Rain = 0
KMC1 171731Z 27008G13KT 17/07 A3007 RMK A01 T01670070  RH  053%=      5-min Rain = 0
KMC1 171732Z 27007KT 17/07 A3007 RMK A01 T01660070  RH  053%=      5-min Rain = 0
KMC1 171733Z 26005KT 17/07 A3007 RMK A01 T01660068  RH  053%=      5-min Rain = 0
KMC1 171734Z 25005KT 16/07 A3007 RMK A01 T01640068  RH  053%=      5-min Rain = 0
KMC1 171735Z 26005KT 16/07 A3007 RMK A01 T01630069  RH  054%=      5-min Rain = 0
KMC1 171736Z 27004KT 16/07 A3007 RMK A01 T01630069  RH  054%=      5-min Rain = 0
KMC1 171737Z 28006KT 16/07 A3007 RMK A01 T01630069  RH  054%=      5-min Rain = 0
KMC1 171738Z 28003KT 16/07 A3007 RMK A01 T01630067  RH  053%=      5-min Rain = 0
KMC1 171739Z 29006KT 16/07 A3007 RMK A01 T01630067  RH  053%=      5-min Rain = 0
KMC1 171740Z 27005KT 16/07 A3007 RMK A01 T01630067  RH  053%=      5-min Rain = 0
KMC1 171741Z 26004KT 16/07 A3007 RMK A01 T01630069  RH  054%=      5-min Rain = 0
KMC1 171742Z 31004KT 17/07 A3007 RMK A01 T01650070  RH  053%=      5-min Rain = 0
KMC1 171743Z 31005KT 17/07 A3007 RMK A01 T01660068  RH  052%=      5-min Rain = 0
KMC1 171744Z 30007KT 17/07 A3007 RMK A01 T01650066  RH  052%=      5-min Rain = 0
KMC1 171745Z 30008KT 16/07 A3007 RMK A01 T01640066  RH  052%=      5-min Rain = 0
KMC1 171746Z 29007KT 16/07 A3007 RMK A01 T01640068  RH  053%=      5-min Rain = 0
KMC1 171747Z 30008KT 17/07 A3007 RMK A01 T01660068  RH  052%=      5-min Rain = 0
KMC1 171748Z 30006KT 17/07 A3007 RMK A01 T01650066  RH  052%=      5-min Rain = 0
KMC1 171749Z 29006KT 16/07 A3007 RMK A01 T01640067  RH  052%=      5-min Rain = 0
KMC1 171750Z 27005KT 17/07 A3007 RMK A01 T01650067  RH  053%=      5-min Rain = 0
KMC1 171751Z 28005KT 16/07 A3006 RMK A01 T01640066  RH  052%=      5-min Rain = 0
KMC1 171752Z 28004KT 16/07 A3006 RMK A01 T01630067  RH  053%=      5-min Rain = 0
KMC1 171753Z 28004KT 16/07 A3006 RMK A01 T01640067  RH  053%=      5-min Rain = 0
KMC1 171754Z 31006KT 17/07 A3006 RMK A01 T01670070  RH  053%=      5-min Rain = 0
KMC1 171755Z 32007KT 17/07 A3006 RMK A01 T01690068  RH  051%=      5-min Rain = 0
KMC1 171756Z 30008KT 17/07 A3006 RMK A01 T01710070  RH  051%=      5-min Rain = 0
KMC1 171757Z 28006KT 18/07 A3006 RMK A01 T01750069  RH  050%=      5-min Rain = 0
KMC1 171758Z 27005KT 18/07 A3006 RMK A01 T01750066  RH  049%=      5-min Rain = 0
KMC1 171759Z 26004KT 17/07 A3006 RMK A01 T01730068  RH  050%=      5-min Rain = 0
KMC1 171800Z 27007KT 17/07 A3006 RMK A01 T01740069  RH  050%=      5-min Rain = 0
KMC1 171801Z 27006KT 18/07 A3006 RMK A01 T01750067  RH  049%=      5-min Rain = 0
KMC1 171802Z 28005KT 18/07 A3005 RMK A01 T01750067  RH  049%=      5-min Rain = 0
KMC1 171803Z 30006KT 17/07 A3005 RMK A01 T01740065  RH  049%=      5-min Rain = 0
KMC1 171804Z 29004KT 17/07 A3005 RMK A01 T01730067  RH  050%=      5-min Rain = 0
KMC1 171805Z 26007KT 17/07 A3006 RMK A01 T01730065  RH  049%=      5-min Rain = 0
KMC1 171806Z 28005KT 17/07 A3006 RMK A01 T01730066  RH  049%=      5-min Rain = 0
KMC1 171807Z 31007KT 18/07 A3006 RMK A01 T01750067  RH  049%=      5-min Rain = 0
KMC1 171808Z 29008KT 18/07 A3006 RMK A01 T01770067  RH  048%=      5-min Rain = 0
KMC1 171809Z 30008KT 18/07 A3006 RMK A01 T01790066  RH  048%=      5-min Rain = 0
KMC1 171810Z 31006KT 18/07 A3006 RMK A01 T01810066  RH  047%=      5-min Rain = 0
KMC1 171811Z 30006KT 18/06 A3006 RMK A01 T01800064  RH  046%=      5-min Rain = 0
KMC1 171812Z 31004KT 18/06 A3006 RMK A01 T01800064  RH  047%=      5-min Rain = 0
KMC1 171813Z 30007KT 18/06 A3006 RMK A01 T01800064  RH  047%=      5-min Rain = 0
KMC1 171814Z 31006KT 18/06 A3006 RMK A01 T01790063  RH  047%=      5-min Rain = 0
KMC1 171815Z 30006KT 18/06 A3006 RMK A01 T01790063  RH  046%=      5-min Rain = 0
KMC1 171816Z 32006KT 18/06 A3006 RMK A01 T01800064  RH  047%=      5-min Rain = 0
KMC1 171817Z 34006KT 18/06 A3006 RMK A01 T01810064  RH  046%=      5-min Rain = 0
KMC1 171818Z 33005KT 18/06 A3005 RMK A01 T01820063  RH  046%=      5-min Rain = 0
KMC1 171819Z 28004G9KT 18/07 A3005 RMK A01 T01830065  RH  046%=      5-min Rain = 0
KMC1 171820Z 28008KT 18/06 A3005 RMK A01 T01840063  RH  045%=      5-min Rain = 0
KMC1 171821Z 30009KT 18/06 A3005 RMK A01 T01830062  RH  045%=      5-min Rain = 0
KMC1 171822Z 31006KT 18/06 A3005 RMK A01 T01810062  RH  046%=      5-min Rain = 0
KMC1 171823Z 32006KT 18/06 A3005 RMK A01 T01800063  RH  046%=      5-min Rain = 0
KMC1 171824Z 31006KT 18/06 A3005 RMK A01 T01800061  RH  046%=      5-min Rain = 0
KMC1 171825Z 30006KT 18/06 A3005 RMK A01 T01780061  RH  046%=      5-min Rain = 0
KMC1 171826Z 28003KT 18/06 A3005 RMK A01 T01780061  RH  046%=      5-min Rain = 0
KMC1 171827Z 32005KT 18/06 A3005 RMK A01 T01780062  RH  047%=      5-min Rain = 0
KMC1 171828Z 32008KT 18/06 A3005 RMK A01 T01800063  RH  046%=      5-min Rain = 0
KMC1 171829Z 31007KT 18/07 A3005 RMK A01 T01820066  RH  046%=      5-min Rain = 0
KMC1 171830Z 30006KT 18/06 A3005 RMK A01 T01840064  RH  045%=      5-min Rain = 0
KMC1 171831Z 31006KT 19/06 A3005 RMK A01 T01860064  RH  045%=      5-min Rain = 0
KMC1 171832Z 31006KT 19/07 A3005 RMK A01 T01870065  RH  045%=      5-min Rain = 0
KMC1 171833Z 31007KT 19/06 A3005 RMK A01 T01880062  RH  044%=      5-min Rain = 0
KMC1 171834Z 31005KT 19/06 A3005 RMK A01 T01870064  RH  044%=      5-min Rain = 0
KMC1 171835Z 32004KT 19/06 A3005 RMK A01 T01870062  RH  044%=      5-min Rain = 0
KMC1 171836Z 30005KT 19/06 A3005 RMK A01 T01860060  RH  044%=      5-min Rain = 0
KMC1 171837Z 29005KT 18/06 A3005 RMK A01 T01840058  RH  044%=      5-min Rain = 0
KMC1 171838Z 26003KT 18/06 A3005 RMK A01 T01840063  RH  045%=      5-min Rain = 0
KMC1 171839Z 28005KT 19/07 A3005 RMK A01 T01860067  RH  046%=      5-min Rain = 0
KMC1 171840Z 30008KT 19/06 A3005 RMK A01 T01890064  RH  044%=      5-min Rain = 0
KMC1 171841Z 31008KT 19/06 A3005 RMK A01 T01880062  RH  044%=      5-min Rain = 0
KMC1 171842Z 32005KT 19/06 A3005 RMK A01 T01870063  RH  044%=      5-min Rain = 0
KMC1 171843Z 30005KT 19/06 A3005 RMK A01 T01880064  RH  044%=      5-min Rain = 0
KMC1 171844Z 32004KT 19/06 A3005 RMK A01 T01890063  RH  044%=      5-min Rain = 0
KMC1 171845Z 33005KT 19/07 A3005 RMK A01 T01900065  RH  044%=      5-min Rain = 0
KMC1 171846Z 34006G12KT 19/06 A3005 RMK A01 T01920064  RH  043%=      5-min Rain = 0
KMC1 171847Z 34012KT 19/06 A3005 RMK A01 T01900061  RH  043%=      5-min Rain = 0
KMC1 171848Z 31006KT 19/06 A3005 RMK A01 T01870061  RH  044%=      5-min Rain = 0
KMC1 171849Z 31009KT 19/06 A3005 RMK A01 T01870063  RH  044%=      5-min Rain = 0
KMC1 171850Z 32006KT 19/06 A3005 RMK A01 T01880061  RH  043%=      5-min Rain = 0
KMC1 171851Z 29005KT 19/06 A3005 RMK A01 T01870060  RH  043%=      5-min Rain = 0
KMC1 171852Z 35007KT 19/06 A3005 RMK A01 T01870062  RH  044%=      5-min Rain = 0
KMC1 171853Z 35008KT 19/06 A3005 RMK A01 T01850058  RH  043%=      5-min Rain = 0
KMC1 171854Z 34005KT 18/06 A3005 RMK A01 T01840060  RH  044%=      5-min Rain = 0
KMC1 171855Z 33003KT 18/06 A3004 RMK A01 T01830057  RH  044%=      5-min Rain = 0
KMC1 171856Z 33003KT 18/06 A3004 RMK A01 T01820058  RH  044%=      5-min Rain = 0
KMC1 171857Z 33004KT 18/06 A3004 RMK A01 T01820060  RH  045%=      5-min Rain = 0
KMC1 171858Z 32005KT 19/06 A3004 RMK A01 T01850062  RH  044%=      5-min Rain = 0
KMC1 171859Z 31006KT 19/06 A3004 RMK A01 T01870062  RH  044%=      5-min Rain = 0
KMC1 171900Z 34004KT 19/06 A3004 RMK A01 T01870061  RH  044%=      5-min Rain = 0
KMC1 171901Z 32004KT 19/06 A3004 RMK A01 T01880061  RH  044%=      5-min Rain = 0
KMC1 171902Z 28003KT 19/06 A3004 RMK A01 T01880060  RH  043%=      5-min Rain = 0
KMC1 171903Z 33003KT 19/06 A3004 RMK A01 T01880062  RH  044%=      5-min Rain = 0
KMC1 171904Z 33006KT 19/06 A3004 RMK A01 T01880062  RH  043%=      5-min Rain = 0
KMC1 171905Z 33004KT 19/06 A3004 RMK A01 T01890060  RH  043%=      5-min Rain = 0
KMC1 171906Z 29006KT 19/06 A3004 RMK A01 T01890060  RH  043%=      5-min Rain = 0
KMC1 171907Z 28007G12KT 19/06 A3004 RMK A01 T01900062  RH  043%=      5-min Rain = 0
KMC1 171908Z 29006KT 19/06 A3004 RMK A01 T01890059  RH  042%=      5-min Rain = 0
KMC1 171909Z 35005KT 19/06 A3004 RMK A01 T01880060  RH  043%=      5-min Rain = 0
KMC1 171910Z 33007KT 19/06 A3004 RMK A01 T01880060  RH  043%=      5-min Rain = 0
KMC1 171911Z 32011KT 19/06 A3004 RMK A01 T01890059  RH  043%=      5-min Rain = 0
KMC1 171912Z 29010KT 19/06 A3004 RMK A01 T01880058  RH  043%=      5-min Rain = 0
KMC1 171913Z 29007KT 19/06 A3004 RMK A01 T01880060  RH  043%=      5-min Rain = 0
KMC1 171914Z 32005KT 19/06 A3004 RMK A01 T01890060  RH  043%=      5-min Rain = 0
KMC1 171915Z 33008KT 19/06 A3004 RMK A01 T01900058  RH  042%=      5-min Rain = 0
KMC1 171916Z 33008KT 19/06 A3004 RMK A01 T01870057  RH  042%=      5-min Rain = 0
KMC1 171917Z 33007KT 19/06 A3004 RMK A01 T01870058  RH  043%=      5-min Rain = 0
KMC1 171918Z 30007KT 19/06 A3004 RMK A01 T01870059  RH  043%=      5-min Rain = 0
KMC1 171919Z 29006KT 19/06 A3004 RMK A01 T01880058  RH  043%=      5-min Rain = 0
KMC1 171920Z 30004KT 19/06 A3004 RMK A01 T01890061  RH  043%=      5-min Rain = 0
KMC1 171921Z 31007KT 19/06 A3004 RMK A01 T01910061  RH  043%=      5-min Rain = 0
KMC1 171922Z 30009KT 19/06 A3004 RMK A01 T01930061  RH  042%=      5-min Rain = 0
KMC1 171923Z 32009KT 19/06 A3004 RMK A01 T01930058  RH  041%=      5-min Rain = 0
KMC1 171924Z 31007KT 19/06 A3004 RMK A01 T01900057  RH  042%=      5-min Rain = 0
KMC1 171925Z 33005KT 19/06 A3003 RMK A01 T01890057  RH  042%=      5-min Rain = 0
KMC1 171926Z 34005KT 19/06 A3003 RMK A01 T01870056  RH  042%=      5-min Rain = 0
KMC1 171927Z 34006KT 19/06 A3003 RMK A01 T01860058  RH  043%=      5-min Rain = 0
KMC1 171928Z 32009KT 19/06 A3003 RMK A01 T01880060  RH  043%=      5-min Rain = 0
KMC1 171929Z 32009KT 19/06 A3003 RMK A01 T01890058  RH  042%=      5-min Rain = 0
KMC1 171930Z 32007G12KT 19/06 A3003 RMK A01 T01890058  RH  042%=      5-min Rain = 0
KMC1 171931Z 31007KT 19/06 A3003 RMK A01 T01880059  RH  043%=      5-min Rain = 0
KMC1 171932Z 33009KT 19/06 A3003 RMK A01 T01900062  RH  043%=      5-min Rain = 0
KMC1 171933Z 33009KT 19/06 A3003 RMK A01 T01920058  RH  042%=      5-min Rain = 0
KMC1 171934Z 32008KT 19/06 A3003 RMK A01 T01900058  RH  042%=      5-min Rain = 0
KMC1 171935Z 31011KT 19/06 A3003 RMK A01 T01900060  RH  043%=      5-min Rain = 0
KMC1 171936Z 30008KT 19/06 A3003 RMK A01 T01890060  RH  043%=      5-min Rain = 0
KMC1 171937Z 32007KT 19/06 A3003 RMK A01 T01890060  RH  043%=      5-min Rain = 0
KMC1 171938Z 33006KT 19/06 A3003 RMK A01 T01880057  RH  042%=      5-min Rain = 0
KMC1 171939Z 36008G13KT 19/06 A3003 RMK A01 T01860059  RH  043%=      5-min Rain = 0
KMC1 171940Z 00009KT 18/06 A3003 RMK A01 T01840058  RH  043%=      5-min Rain = 0
KMC1 171941Z 33008KT 18/06 A3003 RMK A01 T01830059  RH  044%=      5-min Rain = 0
KMC1 171942Z 33009KT 18/06 A3003 RMK A01 T01820059  RH  044%=      5-min Rain = 0
KMC1 171943Z 33006KT 18/06 A3003 RMK A01 T01810058  RH  045%=      5-min Rain = 0
KMC1 171944Z 33005KT 18/06 A3003 RMK A01 T01800060  RH  045%=      5-min Rain = 0
KMC1 171945Z 34007KT 18/06 A3003 RMK A01 T01820061  RH  045%=      5-min Rain = 0
KMC1 171946Z 35009KT 18/06 A3003 RMK A01 T01840061  RH  044%=      5-min Rain = 0
KMC1 171947Z 35009KT 18/06 A3003 RMK A01 T01840059  RH  044%=      5-min Rain = 0
KMC1 171948Z 35009KT 18/06 A3003 RMK A01 T01820059  RH  044%=      5-min Rain = 0
KMC1 171949Z 35007KT 18/06 A3003 RMK A01 T01810059  RH  045%=      5-min Rain = 0
KMC1 171950Z 32010KT 18/06 A3003 RMK A01 T01830061  RH  045%=      5-min Rain = 0
KMC1 171951Z 31007KT 18/06 A3003 RMK A01 T01840059  RH  044%=      5-min Rain = 0
KMC1 171952Z 32008KT 18/06 A3003 RMK A01 T01830060  RH  044%=      5-min Rain = 0
KMC1 171953Z 34008G13KT 18/06 A3003 RMK A01 T01840060  RH  044%=      5-min Rain = 0
KMC1 171954Z 33010KT 18/06 A3003 RMK A01 T01830059  RH  044%=      5-min Rain = 0
KMC1 171955Z 32010KT 18/06 A3003 RMK A01 T01800057  RH  044%=      5-min Rain = 0
KMC1 171956Z 33007KT 18/06 A3003 RMK A01 T01790059  RH  045%=      5-min Rain = 0
KMC1 171957Z 34008KT 18/06 A3003 RMK A01 T01800062  RH  046%=      5-min Rain = 0
KMC1 171958Z 34007KT 18/06 A3003 RMK A01 T01840062  RH  045%=      5-min Rain = 0
KMC1 171959Z 34006KT 18/06 A3003 RMK A01 T01840061  RH  044%=      5-min Rain = 0
KMC1 172000Z 01010KT 19/06 A3003 RMK A01 T01850060  RH  044%=      5-min Rain = 0
KMC1 172001Z 01010KT 18/06 A3003 RMK A01 T01820058  RH  044%=      5-min Rain = 0
KMC1 172002Z 35010G15KT 18/06 A3003 RMK A01 T01800059  RH  045%=      5-min Rain = 0
KMC1 172003Z 34009KT 18/06 A3003 RMK A01 T01820060  RH  045%=      5-min Rain = 0
KMC1 172004Z 33008KT 18/06 A3003 RMK A01 T01820058  RH  044%=      5-min Rain = 0
KMC1 172005Z 35009KT 18/06 A3003 RMK A01 T01810058  RH  044%=      5-min Rain = 0
KMC1 172006Z 34008KT 18/06 A3003 RMK A01 T01800059  RH  045%=      5-min Rain = 0
KMC1 172007Z 34007KT 18/06 A3003 RMK A01 T01800059  RH  045%=      5-min Rain = 0
KMC1 172008Z 31007KT 18/06 A3003 RMK A01 T01790060  RH  045%=      5-min Rain = 0
KMC1 172009Z 30009KT 18/06 A3003 RMK A01 T01800060  RH  045%=      5-min Rain = 0
KMC1 172010Z 32008KT 18/06 A3003 RMK A01 T01810060  RH  045%=      5-min Rain = 0
KMC1 172011Z 34006KT 18/06 A3003 RMK A01 T01800060  RH  045%=      5-min Rain = 0
KMC1 172012Z 33007KT 18/06 A3003 RMK A01 T01790059  RH  045%=      5-min Rain = 0
KMC1 172013Z 33008KT 18/06 A3003 RMK A01 T01780060  RH  046%=      5-min Rain = 0
KMC1 172014Z 34009KT 18/06 A3003 RMK A01 T01780059  RH  046%=      5-min Rain = 0
KMC1 172015Z 34009KT 18/06 A3003 RMK A01 T01780060  RH  046%=      5-min Rain = 0
KMC1 172016Z 33008KT 18/06 A3003 RMK A01 T01780060  RH  046%=      5-min Rain = 0
KMC1 172017Z 33007KT 18/06 A3003 RMK A01 T01790061  RH  046%=      5-min Rain = 0
KMC1 172018Z 34008KT 18/06 A3003 RMK A01 T01790060  RH  046%=      5-min Rain = 0
KMC1 172019Z 34007KT 18/06 A3002 RMK A01 T01790060  RH  046%=      5-min Rain = 0
KMC1 172020Z 34007KT 18/06 A3002 RMK A01 T01790060  RH  046%=      5-min Rain = 0
KMC1 172021Z 33006KT 18/06 A3002 RMK A01 T01790060  RH  046%=      5-min Rain = 0
KMC1 172022Z 32009KT 18/06 A3002 RMK A01 T01780061  RH  046%=      5-min Rain = 0
KMC1 172023Z 33007KT 18/06 A3002 RMK A01 T01780060  RH  046%=      5-min Rain = 0
KMC1 172024Z 34007KT 18/06 A3002 RMK A01 T01780061  RH  046%=      5-min Rain = 0
KMC1 172025Z 34006KT 18/06 A3002 RMK A01 T01780061  RH  046%=      5-min Rain = 0
KMC1 172026Z 35006KT 18/06 A3002 RMK A01 T01790061  RH  046%=      5-min Rain = 0
KMC1 172027Z 31008KT 18/06 A3002 RMK A01 T01780060  RH  046%=      5-min Rain = 0
KMC1 172028Z 31007KT 18/06 A3002 RMK A01 T01770061  RH  047%=      5-min Rain = 0
KMC1 172029Z 35005KT 18/06 A3002 RMK A01 T01790064  RH  047%=      5-min Rain = 0
KMC1 172030Z 36009KT 18/07 A3003 RMK A01 T01820065  RH  046%=      5-min Rain = 0
KMC1 172031Z 34010KT 18/06 A3003 RMK A01 T01840063  RH  045%=      5-min Rain = 0
KMC1 172032Z 32009KT 19/06 A3003 RMK A01 T01850064  RH  045%=      5-min Rain = 0
KMC1 172033Z 35010KT 18/06 A3003 RMK A01 T01840062  RH  045%=      5-min Rain = 0
KMC1 172034Z 35010KT 18/06 A3003 RMK A01 T01810062  RH  046%=      5-min Rain = 0
KMC1 172035Z 35007KT 18/06 A3003 RMK A01 T01800062  RH  046%=      5-min Rain = 0
KMC1 172036Z 35008KT 18/06 A3003 RMK A01 T01790063  RH  046%=      5-min Rain = 0
KMC1 172037Z 34005KT 18/06 A3003 RMK A01 T01790063  RH  046%=      5-min Rain = 0
KMC1 172038Z 32008KT 18/06 A3003 RMK A01 T01800064  RH  047%=      5-min Rain = 0
KMC1 172039Z 32010KT 18/06 A3003 RMK A01 T01810063  RH  046%=      5-min Rain = 0
KMC1 172040Z 31009KT 18/06 A3003 RMK A01 T01810062  RH  046%=      5-min Rain = 0
KMC1 172041Z 30007KT 18/06 A3003 RMK A01 T01810063  RH  046%=      5-min Rain = 0
KMC1 172042Z 32006KT 18/07 A3003 RMK A01 T01830066  RH  046%=      5-min Rain = 0
KMC1 172043Z 31007KT 19/07 A3003 RMK A01 T01860067  RH  046%=      5-min Rain = 0
KMC1 172044Z 35008KT 19/07 A3003 RMK A01 T01880065  RH  045%=      5-min Rain = 0
KMC1 172045Z 35010KT 19/06 A3002 RMK A01 T01870063  RH  044%=      5-min Rain = 0
KMC1 172046Z 01010KT 19/06 A3002 RMK A01 T01850063  RH  045%=      5-min Rain = 0
KMC1 172047Z 35008KT 18/06 A3002 RMK A01 T01830063  RH  046%=      5-min Rain = 0
KMC1 172048Z 33009KT 18/06 A3002 RMK A01 T01820063  RH  046%=      5-min Rain = 0
KMC1 172049Z 33007KT 18/06 A3003 RMK A01 T01820063  RH  046%=      5-min Rain = 0
KMC1 172050Z 31007KT 18/06 A3003 RMK A01 T01810064  RH  046%=      5-min Rain = 0
KMC1 172051Z 33008KT 18/07 A3003 RMK A01 T01830065  RH  046%=      5-min Rain = 0
KMC1 172052Z 34006KT 19/07 A3002 RMK A01 T01850065  RH  046%=      5-min Rain = 0
KMC1 172053Z 33009KT 19/07 A3002 RMK A01 T01860065  RH  045%=      5-min Rain = 0
KMC1 172054Z 34010KT 19/07 A3002 RMK A01 T01860065  RH  045%=      5-min Rain = 0
KMC1 172055Z 32008G13KT 19/07 A3002 RMK A01 T01860065  RH  045%=      5-min Rain = 0
KMC1 172056Z 33008KT 19/07 A3003 RMK A01 T01860066  RH  045%=      5-min Rain = 0
KMC1 172057Z 31008KT 19/07 A3003 RMK A01 T01870065  RH  045%=      5-min Rain = 0
KMC1 172058Z 32008KT 19/07 A3003 RMK A01 T01860065  RH  045%=      5-min Rain = 0
KMC1 172059Z 33009KT 19/07 A3003 RMK A01 T01870066  RH  045%=      5-min Rain = 0
KMC1 172100Z 34010KT 19/06 A3003 RMK A01 T01870064  RH  045%=      5-min Rain = 0
KMC1 172101Z 33009KT 19/06 A3003 RMK A01 T01860064  RH  045%=      5-min Rain = 0
KMC1 172102Z 32006KT 19/06 A3003 RMK A01 T01850064  RH  045%=      5-min Rain = 0
KMC1 172103Z 32008KT 19/07 A3003 RMK A01 T01850065  RH  045%=      5-min Rain = 0
KMC1 172104Z 34009KT 19/07 A3003 RMK A01 T01860065  RH  045%=      5-min Rain = 0
KMC1 172105Z 34009KT 19/06 A3003 RMK A01 T01860064  RH  045%=      5-min Rain = 0
KMC1 172106Z 35009KT 19/06 A3003 RMK A01 T01870064  RH  045%=      5-min Rain = 0
KMC1 172107Z 34009KT 19/07 A3003 RMK A01 T01870065  RH  045%=      5-min Rain = 0
KMC1 172108Z 35007KT 19/06 A3003 RMK A01 T01870064  RH  045%=      5-min Rain = 0
KMC1 172109Z 34007KT 19/07 A3003 RMK A01 T01870065  RH  045%=      5-min Rain = 0
KMC1 172110Z 33006KT 19/07 A3003 RMK A01 T01870065  RH  045%=      5-min Rain = 0
KMC1 172111Z 33005KT 19/07 A3003 RMK A01 T01880067  RH  045%=      5-min Rain = 0
KMC1 172112Z 33007KT 19/07 A3003 RMK A01 T01910067  RH  045%=      5-min Rain = 0
KMC1 172113Z 34010KT 19/07 A3003 RMK A01 T01910065  RH  044%=      5-min Rain = 0
KMC1 172114Z 34007KT 19/07 A3003 RMK A01 T01900065  RH  044%=      5-min Rain = 0
KMC1 172115Z 33007KT 19/07 A3003 RMK A01 T01890066  RH  044%=      5-min Rain = 0
KMC1 172116Z 34009KT 19/07 A3003 RMK A01 T01890065  RH  044%=      5-min Rain = 0
KMC1 172117Z 32009KT 19/06 A3003 RMK A01 T01880064  RH  044%=      5-min Rain = 0
KMC1 172118Z 33009KT 19/06 A3003 RMK A01 T01870063  RH  044%=      5-min Rain = 0
KMC1 172119Z 35008KT 19/06 A3003 RMK A01 T01860063  RH  045%=      5-min Rain = 0
KMC1 172120Z 35010KT 19/06 A3003 RMK A01 T01860063  RH  045%=      5-min Rain = 0
KMC1 172121Z 36010KT 19/06 A3003 RMK A01 T01860063  RH  045%=      5-min Rain = 0
KMC1 172122Z 34009KT 19/06 A3003 RMK A01 T01860062  RH  044%=      5-min Rain = 0
KMC1 172123Z 33009KT 19/06 A3003 RMK A01 T01850062  RH  045%=      5-min Rain = 0
KMC1 172124Z 34009KT 19/06 A3003 RMK A01 T01850061  RH  044%=      5-min Rain = 0
KMC1 172125Z 33010KT 19/06 A3003 RMK A01 T01850061  RH  044%=      5-min Rain = 0
KMC1 172126Z 33009KT 18/06 A3003 RMK A01 T01840061  RH  044%=      5-min Rain = 0
KMC1 172127Z 32008KT 19/06 A3003 RMK A01 T01850061  RH  044%=      5-min Rain = 0
KMC1 172128Z 33010KT 19/06 A3003 RMK A01 T01870060  RH  043%=      5-min Rain = 0
KMC1 172129Z 35008KT 19/06 A3003 RMK A01 T01850057  RH  043%=      5-min Rain = 0
KMC1 172130Z 34012KT 18/06 A3003 RMK A01 T01840057  RH  043%=      5-min Rain = 0
KMC1 172131Z 33008KT 18/06 A3003 RMK A01 T01840057  RH  043%=      5-min Rain = 0
KMC1 172132Z 34007KT 18/06 A3003 RMK A01 T01840058  RH  044%=      5-min Rain = 0
KMC1 172133Z 34008KT 18/06 A3003 RMK A01 T01840057  RH  043%=      5-min Rain = 0
KMC1 172134Z 32009KT 18/06 A3003 RMK A01 T01840057  RH  043%=      5-min Rain = 0
KMC1 172135Z 33009KT 18/06 A3003 RMK A01 T01840057  RH  043%=      5-min Rain = 0
KMC1 172136Z 32007KT 19/06 A3003 RMK A01 T01850057  RH  043%=      5-min Rain = 0
KMC1 172137Z 33008KT 19/06 A3003 RMK A01 T01850056  RH  043%=      5-min Rain = 0
KMC1 172138Z 34011KT 19/06 A3003 RMK A01 T01850056  RH  042%=      5-min Rain = 0
KMC1 172139Z 34009KT 18/06 A3003 RMK A01 T01840055  RH  043%=      5-min Rain = 0
KMC1 172140Z 33008KT 18/06 A3003 RMK A01 T01840057  RH  043%=      5-min Rain = 0
KMC1 172141Z 35008KT 19/06 A3003 RMK A01 T01860058  RH  043%=      5-min Rain = 0
KMC1 172142Z 34008KT 19/06 A3004 RMK A01 T01880057  RH  042%=      5-min Rain = 0
KMC1 172143Z 33007KT 19/06 A3004 RMK A01 T01880055  RH  042%=      5-min Rain = 0
KMC1 172144Z 34006KT 19/06 A3004 RMK A01 T01870056  RH  042%=      5-min Rain = 0
KMC1 172145Z 33006KT 19/06 A3004 RMK A01 T01870056  RH  042%=      5-min Rain = 0
KMC1 172146Z 33009KT 19/06 A3004 RMK A01 T01870056  RH  042%=      5-min Rain = 0
KMC1 172147Z 34008KT 19/05 A3004 RMK A01 T01870054  RH  042%=      5-min Rain = 0
KMC1 172148Z 36008KT 19/05 A3004 RMK A01 T01850054  RH  042%=      5-min Rain = 0
KMC1 172149Z 35009G14KT 19/05 A3004 RMK A01 T01850054  RH  042%=      5-min Rain = 0
KMC1 172150Z 34009KT 19/06 A3004 RMK A01 T01860055  RH  042%=      5-min Rain = 0
KMC1 172151Z 34007KT 19/05 A3004 RMK A01 T01860054  RH  042%=      5-min Rain = 0
KMC1 172152Z 33008KT 19/05 A3004 RMK A01 T01850054  RH  042%=      5-min Rain = 0
KMC1 172153Z 34006KT 19/06 A3004 RMK A01 T01850056  RH  043%=      5-min Rain = 0
KMC1 172154Z 34009G14KT 19/06 A3004 RMK A01 T01870056  RH  042%=      5-min Rain = 0
KMC1 172155Z 34011KT 19/05 A3004 RMK A01 T01870053  RH  042%=      5-min Rain = 0
KMC1 172156Z 35009KT 19/05 A3004 RMK A01 T01850052  RH  042%=      5-min Rain = 0
KMC1 172157Z 36010KT 18/05 A3004 RMK A01 T01840054  RH  042%=      5-min Rain = 0
KMC1 172158Z 36010KT 18/05 A3004 RMK A01 T01830052  RH  042%=      5-min Rain = 0
KMC1 172159Z 35006KT 18/05 A3004 RMK A01 T01830054  RH  043%=      5-min Rain = 0
KMC1 172200Z 34008KT 19/06 A3004 RMK A01 T01850055  RH  043%=      5-min Rain = 0
KMC1 172201Z 35008KT 19/05 A3004 RMK A01 T01850053  RH  042%=      5-min Rain = 0
KMC1 172202Z 35006KT 18/05 A3004 RMK A01 T01830053  RH  042%=      5-min Rain = 0
KMC1 172203Z 34012KT 18/05 A3004 RMK A01 T01830053  RH  042%=      5-min Rain = 0
KMC1 172204Z 36010KT 18/05 A3004 RMK A01 T01830052  RH  042%=      5-min Rain = 0
KMC1 172205Z 35009KT 18/05 A3004 RMK A01 T01820053  RH  043%=      5-min Rain = 0
KMC1 172206Z 35012KT 18/05 A3004 RMK A01 T01820053  RH  042%=      5-min Rain = 0
KMC1 172207Z 35010KT 18/05 A3004 RMK A01 T01830052  RH  042%=      5-min Rain = 0
KMC1 172208Z 35008KT 18/05 A3005 RMK A01 T01820053  RH  042%=      5-min Rain = 0
KMC1 172209Z 36008KT 18/05 A3005 RMK A01 T01830054  RH  043%=      5-min Rain = 0
KMC1 172210Z 33006KT 18/05 A3005 RMK A01 T01830053  RH  042%=      5-min Rain = 0
KMC1 172211Z 35007KT 18/05 A3004 RMK A01 T01830054  RH  042%=      5-min Rain = 0
KMC1 172212Z 35009KT 18/05 A3004 RMK A01 T01840053  RH  042%=      5-min Rain = 0
KMC1 172213Z 34008KT 18/05 A3004 RMK A01 T01830052  RH  042%=      5-min Rain = 0
KMC1 172214Z 34009KT 18/05 A3005 RMK A01 T01820052  RH  042%=      5-min Rain = 0
KMC1 172215Z 35010KT 18/05 A3005 RMK A01 T01810053  RH  043%=      5-min Rain = 0
KMC1 172216Z 35011KT 18/05 A3005 RMK A01 T01820052  RH  042%=      5-min Rain = 0
KMC1 172217Z 35012KT 18/05 A3005 RMK A01 T01820052  RH  042%=      5-min Rain = 0
KMC1 172218Z 35008KT 18/05 A3005 RMK A01 T01810051  RH  042%=      5-min Rain = 0
KMC1 172219Z 35007KT 18/05 A3005 RMK A01 T01800053  RH  043%=      5-min Rain = 0
KMC1 172220Z 36010KT 18/05 A3005 RMK A01 T01810053  RH  043%=      5-min Rain = 0
KMC1 172221Z 35008KT 18/05 A3005 RMK A01 T01820052  RH  042%=      5-min Rain = 0
KMC1 172222Z 34007KT 18/05 A3005 RMK A01 T01820052  RH  042%=      5-min Rain = 0
KMC1 172223Z 34009KT 18/05 A3005 RMK A01 T01820052  RH  042%=      5-min Rain = 0
KMC1 172224Z 33005KT 18/05 A3005 RMK A01 T01810051  RH  042%=      5-min Rain = 0
KMC1 172225Z 35006KT 18/05 A3005 RMK A01 T01810052  RH  042%=      5-min Rain = 0
KMC1 172226Z 35008KT 18/05 A3005 RMK A01 T01800051  RH  042%=      5-min Rain = 0
KMC1 172227Z 33008KT 18/05 A3005 RMK A01 T01800051  RH  042%=      5-min Rain = 0
KMC1 172228Z 34008KT 18/05 A3005 RMK A01 T01800051  RH  043%=      5-min Rain = 0
KMC1 172229Z 34011KT 18/05 A3005 RMK A01 T01800050  RH  042%=      5-min Rain = 0
KMC1 172230Z 34009KT 18/05 A3005 RMK A01 T01790050  RH  043%=      5-min Rain = 0
KMC1 172231Z 33009KT 18/05 A3005 RMK A01 T01790051  RH  043%=      5-min Rain = 0
KMC1 172232Z 33009KT 18/05 A3005 RMK A01 T01780050  RH  043%=      5-min Rain = 0
KMC1 172233Z 33010KT 18/05 A3005 RMK A01 T01780050  RH  043%=      5-min Rain = 0
KMC1 172234Z 34009KT 18/05 A3005 RMK A01 T01780050  RH  043%=      5-min Rain = 0
KMC1 172235Z 34006KT 18/05 A3005 RMK A01 T01780050  RH  043%=      5-min Rain = 0
KMC1 172236Z 34005KT 18/05 A3005 RMK A01 T01780050  RH  043%=      5-min Rain = 0
KMC1 172237Z 33006KT 18/05 A3005 RMK A01 T01780050  RH  043%=      5-min Rain = 0
KMC1 172238Z 33007KT 18/05 A3005 RMK A01 T01780050  RH  043%=      5-min Rain = 0
KMC1 172239Z 34007KT 18/05 A3005 RMK A01 T01780050  RH  043%=      5-min Rain = 0
KMC1 172240Z 35007KT 18/05 A3005 RMK A01 T01780051  RH  043%=      5-min Rain = 0
KMC1 172241Z 35006KT 18/05 A3005 RMK A01 T01780051  RH  043%=      5-min Rain = 0
KMC1 172242Z 35009KT 18/05 A3005 RMK A01 T01790051  RH  043%=      5-min Rain = 0
KMC1 172243Z 36012KT 18/05 A3005 RMK A01 T01790050  RH  043%=      5-min Rain = 0
KMC1 172244Z 36011KT 18/05 A3005 RMK A01 T01780050  RH  043%=      5-min Rain = 0
KMC1 172245Z 36010KT 18/05 A3005 RMK A01 T01770050  RH  043%=      5-min Rain = 0
KMC1 172246Z 35010KT 18/05 A3005 RMK A01 T01770050  RH  043%=      5-min Rain = 0
KMC1 172247Z 35005KT 18/05 A3005 RMK A01 T01760050  RH  043%=      5-min Rain = 0
KMC1 172248Z 00010KT 18/05 A3005 RMK A01 T01760050  RH  043%=      5-min Rain = 0
KMC1 172249Z 36007KT 18/05 A3005 RMK A01 T01760049  RH  043%=      5-min Rain = 0
KMC1 172250Z 00006KT 18/05 A3005 RMK A01 T01760050  RH  043%=      5-min Rain = 0
KMC1 172251Z 36005KT 18/05 A3005 RMK A01 T01760051  RH  044%=      5-min Rain = 0
KMC1 172252Z 35006KT 18/05 A3005 RMK A01 T01760051  RH  044%=      5-min Rain = 0
KMC1 172253Z 36010G16KT 18/05 A3005 RMK A01 T01760051  RH  043%=      5-min Rain = 0
KMC1 172254Z 35010KT 18/05 A3006 RMK A01 T01760050  RH  043%=      5-min Rain = 0
KMC1 172255Z 35009KT 18/05 A3006 RMK A01 T01750049  RH  043%=      5-min Rain = 0
KMC1 172256Z 34011KT 17/05 A3006 RMK A01 T01740049  RH  043%=      5-min Rain = 0
KMC1 172257Z 35010KT 17/05 A3006 RMK A01 T01740048  RH  043%=      5-min Rain = 0
KMC1 172258Z 35009KT 17/05 A3006 RMK A01 T01730049  RH  044%=      5-min Rain = 0
KMC1 172259Z 36010KT 17/05 A3006 RMK A01 T01730048  RH  044%=      5-min Rain = 0
KMC1 172300Z 00009KT 17/05 A3006 RMK A01 T01720048  RH  044%=      5-min Rain = 0
KMC1 172301Z 00008KT 17/05 A3006 RMK A01 T01720048  RH  044%=      5-min Rain = 0
KMC1 172302Z 35009KT 17/05 A3006 RMK A01 T01720048  RH  044%=      5-min Rain = 0
KMC1 172303Z 35008KT 17/05 A3006 RMK A01 T01710048  RH  044%=      5-min Rain = 0
KMC1 172304Z 35007KT 17/05 A3006 RMK A01 T01710048  RH  044%=      5-min Rain = 0
KMC1 172305Z 00006KT 17/05 A3006 RMK A01 T01710048  RH  044%=      5-min Rain = 0
KMC1 172306Z 36006KT 17/05 A3006 RMK A01 T01710049  RH  045%=      5-min Rain = 0
KMC1 172307Z 36010G15KT 17/05 A3006 RMK A01 T01700048  RH  044%=      5-min Rain = 0
KMC1 172308Z 36010KT 17/05 A3006 RMK A01 T01700047  RH  044%=      5-min Rain = 0
KMC1 172309Z 35010KT 17/05 A3006 RMK A01 T01690047  RH  044%=      5-min Rain = 0
KMC1 172310Z 35009KT 17/05 A3006 RMK A01 T01680047  RH  045%=      5-min Rain = 0
KMC1 172311Z 34008KT 17/05 A3006 RMK A01 T01680047  RH  045%=      5-min Rain = 0
KMC1 172312Z 35008KT 17/05 A3006 RMK A01 T01680047  RH  045%=      5-min Rain = 0
KMC1 172313Z 35006KT 17/05 A3006 RMK A01 T01670047  RH  045%=      5-min Rain = 0
KMC1 172314Z 36005KT 17/05 A3006 RMK A01 T01660047  RH  045%=      5-min Rain = 0
KMC1 172315Z 35006KT 17/05 A3006 RMK A01 T01650047  RH  046%=      5-min Rain = 0
KMC1 172316Z 34006KT 16/05 A3006 RMK A01 T01640047  RH  046%=      5-min Rain = 0
KMC1 172317Z 35006KT 16/05 A3006 RMK A01 T01630047  RH  046%=      5-min Rain = 0
KMC1 172318Z 34006G11KT 16/05 A3006 RMK A01 T01630047  RH  046%=      5-min Rain = 0
KMC1 172319Z 35007KT 16/05 A3006 RMK A01 T01620047  RH  046%=      5-min Rain = 0
KMC1 172320Z 35008KT 16/05 A3006 RMK A01 T01620047  RH  046%=      5-min Rain = 0
KMC1 172321Z 35009KT 16/05 A3006 RMK A01 T01620046  RH  046%=      5-min Rain = 0
KMC1 172322Z 35007KT 16/05 A3006 RMK A01 T01620045  RH  046%=      5-min Rain = 0
KMC1 172323Z 35007KT 16/05 A3006 RMK A01 T01620046  RH  046%=      5-min Rain = 0
KMC1 172324Z 35009KT 16/05 A3006 RMK A01 T01620046  RH  046%=      5-min Rain = 0
KMC1 172325Z 35008KT 16/05 A3006 RMK A01 T01610046  RH  046%=      5-min Rain = 0
KMC1 172326Z 35007KT 16/05 A3006 RMK A01 T01610047  RH  047%=      5-min Rain = 0
KMC1 172327Z 35008KT 16/05 A3006 RMK A01 T01600046  RH  047%=      5-min Rain = 0
KMC1 172328Z 35008KT 16/05 A3006 RMK A01 T01600046  RH  047%=      5-min Rain = 0
KMC1 172329Z 36007KT 16/05 A3006 RMK A01 T01600046  RH  047%=      5-min Rain = 0
KMC1 172330Z 36006KT 16/05 A3006 RMK A01 T01590046  RH  047%=      5-min Rain = 0
KMC1 172331Z 36005KT 16/05 A3006 RMK A01 T01590046  RH  047%=      5-min Rain = 0
KMC1 172332Z 00005KT 16/05 A3006 RMK A01 T01580046  RH  047%=      5-min Rain = 0
KMC1 172333Z 36005KT 16/05 A3006 RMK A01 T01580046  RH  047%=      5-min Rain = 0
KMC1 172334Z 00006KT 16/05 A3006 RMK A01 T01570046  RH  048%=      5-min Rain = 0
KMC1 172335Z 00005KT 16/05 A3007 RMK A01 T01560046  RH  048%=      5-min Rain = 0
KMC1 172336Z 36006KT 16/05 A3007 RMK A01 T01550046  RH  048%=      5-min Rain = 0
KMC1 172337Z 36007KT 16/05 A3007 RMK A01 T01550046  RH  048%=      5-min Rain = 0
KMC1 172338Z 35006KT 16/05 A3007 RMK A01 T01550046  RH  048%=      5-min Rain = 0
KMC1 172339Z 35005KT 16/05 A3007 RMK A01 T01550046  RH  048%=      5-min Rain = 0
KMC1 172340Z 36006KT 15/05 A3007 RMK A01 T01540046  RH  048%=      5-min Rain = 0
KMC1 172341Z 35006KT 15/05 A3007 RMK A01 T01530046  RH  049%=      5-min Rain = 0
KMC1 172342Z 35005KT 15/05 A3007 RMK A01 T01520046  RH  049%=      5-min Rain = 0
KMC1 172343Z 35005KT 15/05 A3007 RMK A01 T01510046  RH  049%=      5-min Rain = 0
KMC1 172344Z 35004KT 15/05 A3007 RMK A01 T01510046  RH  049%=      5-min Rain = 0
KMC1 172345Z 35004KT 15/05 A3006 RMK A01 T01490045  RH  050%=      5-min Rain = 0
KMC1 172346Z 35005KT 15/05 A3006 RMK A01 T01490046  RH  050%=      5-min Rain = 0
KMC1 172347Z 36005KT 15/05 A3006 RMK A01 T01490046  RH  050%=      5-min Rain = 0
KMC1 172348Z 36005KT 15/05 A3006 RMK A01 T01480045  RH  050%=      5-min Rain = 0
KMC1 172349Z 35005KT 15/05 A3006 RMK A01 T01480046  RH  050%=      5-min Rain = 0
KMC1 172350Z 35003KT 15/05 A3006 RMK A01 T01480046  RH  050%=      5-min Rain = 0
KMC1 172351Z 35004KT 15/05 A3006 RMK A01 T01470045  RH  051%=      5-min Rain = 0
KMC1 172352Z 35004KT 15/05 A3006 RMK A01 T01460045  RH  051%=      5-min Rain = 0
KMC1 172353Z 35003KT 15/05 A3006 RMK A01 T01450045  RH  051%=      5-min Rain = 0
KMC1 172354Z 35004KT 15/05 A3006 RMK A01 T01450045  RH  051%=      5-min Rain = 0
KMC1 172355Z 35004KT 14/05 A3006 RMK A01 T01440045  RH  051%=      5-min Rain = 0
KMC1 172356Z 35004KT 14/05 A3006 RMK A01 T01440045  RH  051%=      5-min Rain = 0
KMC1 172357Z 35004KT 14/05 A3006 RMK A01 T01440045  RH  051%=      5-min Rain = 0
KMC1 172358Z 35004KT 14/05 A3007 RMK A01 T01440045  RH  051%=      5-min Rain = 0
KMC1 172359Z 36003KT 14/05 A3007 RMK A01 T01440045  RH  051%=      5-min Rain = 0
KMC1 180000Z 36003KT 14/05 A3007 RMK A01 T01430045  RH  052%=      5-min Rain = 0
KMC1 180001Z 36003KT 14/05 A3007 RMK A01 T01430045  RH  052%=      5-min Rain = 0
KMC1 180002Z 00003KT 14/04 A3007 RMK A01 T01420044  RH  052%=      5-min Rain = 0
KMC1 180003Z 00003KT 14/04 A3006 RMK A01 T01420044  RH  052%=      5-min Rain = 0
KMC1 180004Z 01003KT 14/04 A3006 RMK A01 T01410044  RH  052%=      5-min Rain = 0
KMC1 180005Z 00003KT 14/04 A3006 RMK A01 T01410044  RH  052%=      5-min Rain = 0
KMC1 180006Z 36003KT 14/04 A3006 RMK A01 T01410044  RH  052%=      5-min Rain = 0
KMC1 180007Z 35003KT 14/04 A3007 RMK A01 T01410044  RH  052%=      5-min Rain = 0
KMC1 180008Z 36003KT 14/04 A3006 RMK A01 T01410044  RH  052%=      5-min Rain = 0
KMC1 180009Z 36003KT 14/05 A3006 RMK A01 T01400045  RH  052%=      5-min Rain = 0
KMC1 180010Z 00002KT 14/04 A3006 RMK A01 T01390044  RH  052%=      5-min Rain = 0
KMC1 180011Z 00003KT 14/04 A3006 RMK A01 T01390044  RH  053%=      5-min Rain = 0
KMC1 180012Z 35003KT 14/04 A3007 RMK A01 T01390044  RH  053%=      5-min Rain = 0
KMC1 180013Z 35002KT 14/04 A3007 RMK A01 T01390044  RH  053%=      5-min Rain = 0
KMC1 180014Z 34002KT 14/04 A3007 RMK A01 T01380044  RH  053%=      5-min Rain = 0
KMC1 180015Z 35002KT 14/04 A3007 RMK A01 T01370044  RH  053%=      5-min Rain = 0
KMC1 180016Z 34002KT 14/04 A3007 RMK A01 T01370044  RH  053%=      5-min Rain = 0
KMC1 180017Z 35002KT 14/04 A3007 RMK A01 T01360044  RH  054%=      5-min Rain = 0
KMC1 180018Z 35002KT 14/04 A3007 RMK A01 T01360044  RH  054%=      5-min Rain = 0
KMC1 180019Z 34002KT 14/04 A3007 RMK A01 T01370044  RH  054%=      5-min Rain = 0
KMC1 180020Z 35002KT 14/04 A3007 RMK A01 T01360044  RH  054%=      5-min Rain = 0
KMC1 180021Z 35002KT 14/04 A3007 RMK A01 T01360044  RH  054%=      5-min Rain = 0
KMC1 180022Z 34002KT 14/04 A3007 RMK A01 T01360044  RH  054%=      5-min Rain = 0
KMC1 180023Z 34002KT 14/04 A3007 RMK A01 T01360044  RH  054%=      5-min Rain = 0
KMC1 180024Z 34003KT 14/04 A3008 RMK A01 T01360044  RH  054%=      5-min Rain = 0
KMC1 180025Z 35002KT 14/04 A3008 RMK A01 T01360044  RH  054%=      5-min Rain = 0
KMC1 180026Z 34002KT 14/04 A3007 RMK A01 T01370044  RH  054%=      5-min Rain = 0
KMC1 180027Z 35002KT 14/04 A3007 RMK A01 T01360044  RH  054%=      5-min Rain = 0
KMC1 180028Z 35002KT 14/04 A3007 RMK A01 T01360044  RH  054%=      5-min Rain = 0
KMC1 180029Z 35002KT 14/04 A3007 RMK A01 T01360044  RH  054%=      5-min Rain = 0
KMC1 180030Z 36002KT 14/04 A3007 RMK A01 T01350043  RH  054%=      5-min Rain = 0
KMC1 180031Z 35002KT 14/04 A3007 RMK A01 T01360044  RH  054%=      5-min Rain = 0
KMC1 180032Z 35003KT 14/04 A3007 RMK A01 T01350043  RH  054%=      5-min Rain = 0
KMC1 180033Z 35003KT 14/04 A3007 RMK A01 T01350044  RH  054%=      5-min Rain = 0
KMC1 180034Z 35003KT 14/04 A3007 RMK A01 T01350043  RH  054%=      5-min Rain = 0
KMC1 180035Z 35002KT 14/04 A3007 RMK A01 T01350043  RH  054%=      5-min Rain = 0
KMC1 180036Z 35002KT 13/04 A3007 RMK A01 T01340043  RH  054%=      5-min Rain = 0
KMC1 180037Z 35002KT 13/04 A3008 RMK A01 T01340043  RH  054%=      5-min Rain = 0
KMC1 180038Z 35002KT 13/04 A3008 RMK A01 T01340043  RH  054%=      5-min Rain = 0
KMC1 180039Z 35002KT 13/04 A3008 RMK A01 T01330043  RH  054%=      5-min Rain = 0
KMC1 180040Z 34002KT 13/04 A3008 RMK A01 T01320043  RH  055%=      5-min Rain = 0
KMC1 180041Z 35002KT 13/04 A3008 RMK A01 T01320042  RH  055%=      5-min Rain = 0
KMC1 180042Z 35002KT 13/04 A3008 RMK A01 T01310042  RH  055%=      5-min Rain = 0
KMC1 180043Z 35002KT 13/04 A3008 RMK A01 T01300043  RH  055%=      5-min Rain = 0
KMC1 180044Z 35002KT 13/04 A3008 RMK A01 T01290042  RH  056%=      5-min Rain = 0
KMC1 180045Z 35002KT 13/04 A3008 RMK A01 T01280042  RH  056%=      5-min Rain = 0
KMC1 180046Z 36002KT 13/04 A3008 RMK A01 T01280043  RH  056%=      5-min Rain = 0
KMC1 180047Z 36002KT 13/04 A3008 RMK A01 T01280043  RH  056%=      5-min Rain = 0
KMC1 180048Z 35002KT 13/04 A3008 RMK A01 T01280043  RH  056%=      5-min Rain = 0
KMC1 180049Z 35002KT 13/04 A3008 RMK A01 T01290043  RH  056%=      5-min Rain = 0
KMC1 180050Z 35002KT 13/04 A3008 RMK A01 T01300043  RH  056%=      5-min Rain = 0
KMC1 180051Z 35002KT 13/04 A3008 RMK A01 T01300043  RH  056%=      5-min Rain = 0
KMC1 180052Z 34002KT 13/04 A3008 RMK A01 T01300043  RH  056%=      5-min Rain = 0
KMC1 180053Z 34002KT 13/04 A3008 RMK A01 T01300043  RH  055%=      5-min Rain = 0
KMC1 180054Z 35002KT 13/04 A3008 RMK A01 T01300043  RH  056%=      5-min Rain = 0
KMC1 180055Z 35002KT 13/04 A3008 RMK A01 T01300043  RH  056%=      5-min Rain = 0
KMC1 180056Z 35002KT 13/04 A3008 RMK A01 T01300043  RH  055%=      5-min Rain = 0
KMC1 180057Z 34001KT 13/04 A3008 RMK A01 T01290042  RH  055%=      5-min Rain = 0
KMC1 180058Z 33001KT 13/04 A3008 RMK A01 T01280042  RH  056%=      5-min Rain = 0
KMC1 180059Z 33001KT 13/04 A3008 RMK A01 T01280042  RH  056%=      5-min Rain = 0
KMC1 180100Z 33000KT 13/04 A3008 RMK A01 T01270042  RH  056%=      5-min Rain = 0
KMC1 180101Z 34000KT 13/04 A3008 RMK A01 T01250042  RH  057%=      5-min Rain = 0
KMC1 180102Z 32001KT 13/04 A3008 RMK A01 T01250042  RH  057%=      5-min Rain = 0
KMC1 180103Z 00000KT 12/04 A3008 RMK A01 T01240042  RH  057%=      5-min Rain = 0
KMC1 180104Z 32000KT 12/04 A3009 RMK A01 T01240042  RH  057%=      5-min Rain = 0
KMC1 180105Z 31001KT 12/04 A3009 RMK A01 T01230041  RH  057%=      5-min Rain = 0
KMC1 180106Z 31001KT 12/04 A3009 RMK A01 T01230042  RH  058%=      5-min Rain = 0
KMC1 180107Z 31001KT 12/04 A3009 RMK A01 T01220042  RH  058%=      5-min Rain = 0
KMC1 180108Z 31002KT 12/04 A3009 RMK A01 T01220042  RH  058%=      5-min Rain = 0
KMC1 180109Z 31002KT 12/04 A3009 RMK A01 T01210042  RH  058%=      5-min Rain = 0
KMC1 180110Z 31002KT 12/04 A3009 RMK A01 T01220042  RH  058%=      5-min Rain = 0
KMC1 180111Z 31003KT 12/04 A3009 RMK A01 T01220042  RH  058%=      5-min Rain = 0
KMC1 180112Z 31003KT 12/04 A3009 RMK A01 T01230042  RH  058%=      5-min Rain = 0
KMC1 180113Z 31003KT 12/04 A3009 RMK A01 T01230042  RH  058%=      5-min Rain = 0
KMC1 180114Z 31003KT 12/04 A3009 RMK A01 T01220042  RH  058%=      5-min Rain = 0
KMC1 180115Z 31003KT 12/04 A3009 RMK A01 T01200041  RH  058%=      5-min Rain = 0
KMC1 180116Z 32003KT 12/04 A3009 RMK A01 T01190041  RH  059%=      5-min Rain = 0
KMC1 180117Z 32003KT 12/04 A3009 RMK A01 T01180041  RH  059%=      5-min Rain = 0
KMC1 180118Z 33003KT 12/04 A3009 RMK A01 T01170041  RH  060%=      5-min Rain = 0
KMC1 180119Z 33002KT 12/04 A3009 RMK A01 T01170041  RH  060%=      5-min Rain = 0
KMC1 180120Z 32001KT 12/04 A3009 RMK A01 T01160042  RH  060%=      5-min Rain = 0
KMC1 180121Z 32001KT 12/04 A3009 RMK A01 T01160041  RH  060%=      5-min Rain = 0
KMC1 180122Z 31000KT 12/04 A3009 RMK A01 T01150041  RH  061%=      5-min Rain = 0
KMC1 180123Z 00000KT 11/04 A3009 RMK A01 T01130041  RH  061%=      5-min Rain = 0
KMC1 180124Z 25000KT 11/04 A3009 RMK A01 T01120040  RH  061%=      5-min Rain = 0
KMC1 180125Z 00000KT 11/04 A3009 RMK A01 T01110040  RH  062%=      5-min Rain = 0
KMC1 180126Z 33000KT 11/04 A3009 RMK A01 T01110041  RH  062%=      5-min Rain = 0
KMC1 180127Z 33000KT 11/04 A3009 RMK A01 T01110041  RH  062%=      5-min Rain = 0
KMC1 180128Z 33001KT 11/04 A3009 RMK A01 T01100041  RH  062%=      5-min Rain = 0
KMC1 180129Z 32001KT 11/04 A3009 RMK A01 T01110041  RH  062%=      5-min Rain = 0
KMC1 180130Z 32002KT 11/04 A3009 RMK A01 T01100041  RH  062%=      5-min Rain = 0
KMC1 180131Z 33003KT 11/04 A3009 RMK A01 T01100041  RH  062%=      5-min Rain = 0
KMC1 180132Z 34004KT 11/04 A3009 RMK A01 T01110041  RH  062%=      5-min Rain = 0
KMC1 180133Z 34004KT 11/04 A3009 RMK A01 T01110041  RH  062%=      5-min Rain = 0
KMC1 180134Z 34004KT 11/04 A3009 RMK A01 T01120041  RH  062%=      5-min Rain = 0
KMC1 180135Z 33004KT 11/04 A3009 RMK A01 T01120041  RH  062%=      5-min Rain = 0
KMC1 180136Z 33004KT 11/04 A3009 RMK A01 T01120042  RH  062%=      5-min Rain = 0
KMC1 180137Z 33004KT 11/04 A3009 RMK A01 T01120041  RH  062%=      5-min Rain = 0
KMC1 180138Z 33004KT 11/04 A3009 RMK A01 T01120041  RH  062%=      5-min Rain = 0
KMC1 180139Z 33004KT 11/04 A3009 RMK A01 T01120041  RH  062%=      5-min Rain = 0
KMC1 180140Z 34004KT 11/04 A3009 RMK A01 T01120041  RH  062%=      5-min Rain = 0
KMC1 180141Z 34003KT 11/04 A3009 RMK A01 T01120041  RH  062%=      5-min Rain = 0
KMC1 180142Z 34003KT 11/04 A3009 RMK A01 T01120041  RH  062%=      5-min Rain = 0
KMC1 180143Z 34003KT 11/04 A301 RMK A01 T01120041  RH  062%=      5-min Rain = 0
KMC1 180144Z 33003KT 11/04 A301 RMK A01 T01120041  RH  062%=      5-min Rain = 0
KMC1 180145Z 33002KT 11/04 A301 RMK A01 T01110041  RH  062%=      5-min Rain = 0
KMC1 180146Z 33003KT 11/04 A301 RMK A01 T01110041  RH  062%=      5-min Rain = 0
KMC1 180147Z 34002KT 11/04 A301 RMK A01 T01110040  RH  062%=      5-min Rain = 0
KMC1 180148Z 33002KT 11/04 A301 RMK A01 T01100040  RH  062%=      5-min Rain = 0
KMC1 180149Z 33001KT 11/04 A301 RMK A01 T01090040  RH  062%=      5-min Rain = 0
KMC1 180150Z 33001KT 11/04 A301 RMK A01 T01090039  RH  062%=      5-min Rain = 0
KMC1 180151Z 33001KT 11/04 A301 RMK A01 T01070039  RH  063%=      5-min Rain = 0
KMC1 180152Z 00000KT 11/04 A301 RMK A01 T01060039  RH  063%=      5-min Rain = 0
KMC1 180153Z 00000KT 10/04 A301 RMK A01 T01040038  RH  064%=      5-min Rain = 0
KMC1 180154Z 00000KT 10/04 A301 RMK A01 T01030039  RH  065%=      5-min Rain = 0
KMC1 180155Z 00000KT 10/04 A301 RMK A01 T01020039  RH  065%=      5-min Rain = 0
KMC1 180156Z 31000KT 10/04 A301 RMK A01 T01020039  RH  065%=      5-min Rain = 0
KMC1 180157Z 32001KT 10/04 A301 RMK A01 T01020039  RH  065%=      5-min Rain = 0
KMC1 180158Z 33002KT 10/04 A301 RMK A01 T01020039  RH  065%=      5-min Rain = 0
KMC1 180159Z 33002KT 10/04 A301 RMK A01 T01020039  RH  065%=      5-min Rain = 0
KMC1 180200Z 33002KT 10/04 A301 RMK A01 T01020039  RH  065%=      5-min Rain = 0
KMC1 180201Z 33002KT 10/04 A301 RMK A01 T01030040  RH  065%=      5-min Rain = 0
KMC1 180202Z 34003KT 10/04 A301 RMK A01 T01040040  RH  064%=      5-min Rain = 0
KMC1 180203Z 34003KT 11/04 A301 RMK A01 T01050040  RH  064%=      5-min Rain = 0
KMC1 180204Z 34003KT 11/04 A301 RMK A01 T01060040  RH  064%=      5-min Rain = 0
KMC1 180205Z 34003KT 11/04 A301 RMK A01 T01060040  RH  064%=      5-min Rain = 0
KMC1 180206Z 34003KT 11/04 A301 RMK A01 T01060040  RH  064%=      5-min Rain = 0
KMC1 180207Z 34003KT 11/04 A301 RMK A01 T01060040  RH  064%=      5-min Rain = 0
KMC1 180208Z 34002KT 11/04 A301 RMK A01 T01050039  RH  064%=      5-min Rain = 0
KMC1 180209Z 34001KT 11/04 A301 RMK A01 T01050039  RH  064%=      5-min Rain = 0
KMC1 180210Z 33001KT 10/04 A301 RMK A01 T01040039  RH  064%=      5-min Rain = 0
KMC1 180211Z 33001KT 10/04 A301 RMK A01 T01030038  RH  064%=      5-min Rain = 0
KMC1 180212Z 33001KT 10/04 A301 RMK A01 T01020038  RH  065%=      5-min Rain = 0
KMC1 180213Z 33001KT 10/04 A301 RMK A01 T01020039  RH  065%=      5-min Rain = 0
KMC1 180214Z 34001KT 10/04 A301 RMK A01 T01020039  RH  065%=      5-min Rain = 0
KMC1 180215Z 34001KT 10/04 A3011 RMK A01 T01020039  RH  065%=      5-min Rain = 0
KMC1 180216Z 35001KT 10/04 A3011 RMK A01 T01010038  RH  065%=      5-min Rain = 0
KMC1 180217Z 00000KT 10/04 A3011 RMK A01 T01010039  RH  065%=      5-min Rain = 0
KMC1 180218Z 00000KT 10/04 A3011 RMK A01 T01010039  RH  065%=      5-min Rain = 0
KMC1 180219Z 26000KT 10/04 A3011 RMK A01 T01010038  RH  065%=      5-min Rain = 0
KMC1 180220Z 25001KT 10/04 A3011 RMK A01 T01010038  RH  065%=      5-min Rain = 0
KMC1 180221Z 25002KT 10/04 A3011 RMK A01 T00990038  RH  066%=      5-min Rain = 0
KMC1 180222Z 25002KT 10/04 A3011 RMK A01 T00980038  RH  066%=      5-min Rain = 0
KMC1 180223Z 26001KT 10/04 A3011 RMK A01 T00970038  RH  066%=      5-min Rain = 0
KMC1 180224Z 27001KT 10/04 A3011 RMK A01 T00970038  RH  067%=      5-min Rain = 0
KMC1 180225Z 27001KT 10/04 A3011 RMK A01 T00960038  RH  067%=      5-min Rain = 0
KMC1 180226Z 28001KT 10/04 A3011 RMK A01 T00950038  RH  067%=      5-min Rain = 0
KMC1 180227Z 28001KT 10/04 A3011 RMK A01 T00950038  RH  068%=      5-min Rain = 0
KMC1 180228Z 28002KT 09/04 A3011 RMK A01 T00940038  RH  068%=      5-min Rain = 0
KMC1 180229Z 29002KT 09/04 A3011 RMK A01 T00940038  RH  068%=      5-min Rain = 0
KMC1 180230Z 29002KT 09/04 A3011 RMK A01 T00940038  RH  068%=      5-min Rain = 0
KMC1 180231Z 30003KT 09/04 A3011 RMK A01 T00930038  RH  068%=      5-min Rain = 0
KMC1 180232Z 30003KT 09/04 A3011 RMK A01 T00930038  RH  069%=      5-min Rain = 0
KMC1 180233Z 30003KT 09/04 A3011 RMK A01 T00920038  RH  069%=      5-min Rain = 0
KMC1 180234Z 31003KT 09/04 A3011 RMK A01 T00920039  RH  069%=      5-min Rain = 0
KMC1 180235Z 32003KT 09/04 A3011 RMK A01 T00930039  RH  069%=      5-min Rain = 0
KMC1 180236Z 32003KT 10/04 A3011 RMK A01 T00950039  RH  068%=      5-min Rain = 0
KMC1 180237Z 33003KT 10/04 A3011 RMK A01 T00950039  RH  068%=      5-min Rain = 0
KMC1 180238Z 33003KT 10/04 A3011 RMK A01 T00960039  RH  067%=      5-min Rain = 0
KMC1 180239Z 33004KT 10/04 A3011 RMK A01 T00970039  RH  067%=      5-min Rain = 0
KMC1 180240Z 33004KT 10/04 A3011 RMK A01 T00970039  RH  067%=      5-min Rain = 0
KMC1 180241Z 34004KT 10/04 A301 RMK A01 T00970039  RH  067%=      5-min Rain = 0
KMC1 180242Z 34003KT 10/04 A301 RMK A01 T00970039  RH  067%=      5-min Rain = 0
KMC1 180243Z 34003KT 10/04 A301 RMK A01 T00970039  RH  067%=      5-min Rain = 0
KMC1 180244Z 34003KT 10/04 A3011 RMK A01 T00970039  RH  067%=      5-min Rain = 0
KMC1 180245Z 34003KT 10/04 A3011 RMK A01 T00970039  RH  067%=      5-min Rain = 0
KMC1 180246Z 34003KT 10/04 A3011 RMK A01 T00950038  RH  067%=      5-min Rain = 0
KMC1 180247Z 34003KT 10/04 A3011 RMK A01 T00950038  RH  068%=      5-min Rain = 0
KMC1 180248Z 34003KT 10/04 A3011 RMK A01 T00950038  RH  068%=      5-min Rain = 0
KMC1 180249Z 35002KT 09/03 A3011 RMK A01 T00920033  RH  066%=      5-min Rain = 0
KMC1 180250Z 01001KT 08/03 A3011 RMK A01 T00830027  RH  068%=      5-min Rain = 0
KMC1 180251Z 00000KT 08/03 A3011 RMK A01 T00770029  RH  071%=      5-min Rain = 0
KMC1 180252Z 19001KT 07/03 A3011 RMK A01 T00740030  RH  074%=      5-min Rain = 0
KMC1 180253Z 18003KT 07/03 A3011 RMK A01 T00730031  RH  075%=      5-min Rain = 0
KMC1 180254Z 20002KT 07/03 A3011 RMK A01 T00720033  RH  076%=      5-min Rain = 0
KMC1 180255Z 20002KT 07/03 A3011 RMK A01 T00730033  RH  076%=      5-min Rain = 0
KMC1 180256Z 20002KT 07/03 A3011 RMK A01 T00740033  RH  076%=      5-min Rain = 0
KMC1 180257Z 21002KT 07/03 A3011 RMK A01 T00740034  RH  075%=      5-min Rain = 0
KMC1 180258Z 22002KT 07/03 A3011 RMK A01 T00740033  RH  075%=      5-min Rain = 0
KMC1 180259Z 22002KT 07/03 A3012 RMK A01 T00740033  RH  075%=      5-min Rain = 0
KMC1 180300Z 21002KT 08/03 A3012 RMK A01 T00750034  RH  075%=      5-min Rain = 0
KMC1 180301Z 23002KT 08/03 A3012 RMK A01 T00750034  RH  075%=      5-min Rain = 0
KMC1 180302Z 20002KT 08/03 A3011 RMK A01 T00760034  RH  075%=      5-min Rain = 0
KMC1 180303Z 20002KT 08/04 A3011 RMK A01 T00760035  RH  075%=      5-min Rain = 0
KMC1 180304Z 20002KT 08/04 A3011 RMK A01 T00770035  RH  075%=      5-min Rain = 0
KMC1 180305Z 20002KT 08/04 A3011 RMK A01 T00790036  RH  074%=      5-min Rain = 0
KMC1 180306Z 20002KT 08/04 A3011 RMK A01 T00800036  RH  073%=      5-min Rain = 0
KMC1 180307Z 19003KT 08/04 A3011 RMK A01 T00810035  RH  073%=      5-min Rain = 0
KMC1 180308Z 19003KT 08/04 A3011 RMK A01 T00820036  RH  073%=      5-min Rain = 0
KMC1 180309Z 18004KT 08/04 A3011 RMK A01 T00830036  RH  072%=      5-min Rain = 0
KMC1 180310Z 18004KT 08/04 A3011 RMK A01 T00830036  RH  072%=      5-min Rain = 0
KMC1 180311Z 18004KT 08/04 A3011 RMK A01 T00840036  RH  072%=      5-min Rain = 0
KMC1 180312Z 18004KT 08/04 A3011 RMK A01 T00840036  RH  072%=      5-min Rain = 0
KMC1 180313Z 19004KT 09/04 A3011 RMK A01 T00850036  RH  071%=      5-min Rain = 0
KMC1 180314Z 19002KT 08/04 A3011 RMK A01 T00840035  RH  071%=      5-min Rain = 0
KMC1 180315Z 19002KT 08/03 A3011 RMK A01 T00820034  RH  072%=      5-min Rain = 0
KMC1 180316Z 19000KT 08/03 A3011 RMK A01 T00800034  RH  073%=      5-min Rain = 0
KMC1 180317Z 00000KT 08/04 A3011 RMK A01 T00800035  RH  073%=      5-min Rain = 0
KMC1 180318Z 00000KT 08/04 A3011 RMK A01 T00800035  RH  073%=      5-min Rain = 0
KMC1 180319Z 31000KT 08/04 A3011 RMK A01 T00800035  RH  073%=      5-min Rain = 0
KMC1 180320Z 32001KT 08/04 A3011 RMK A01 T00800035  RH  073%=      5-min Rain = 0
KMC1 180321Z 32001KT 08/04 A3011 RMK A01 T00810036  RH  073%=      5-min Rain = 0
KMC1 180322Z 33001KT 08/04 A3011 RMK A01 T00820035  RH  072%=      5-min Rain = 0
KMC1 180323Z 31001KT 08/04 A3011 RMK A01 T00820035  RH  072%=      5-min Rain = 0
KMC1 180324Z 32001KT 08/04 A3011 RMK A01 T00820035  RH  072%=      5-min Rain = 0
KMC1 180325Z 30001KT 08/04 A3011 RMK A01 T00820035  RH  073%=      5-min Rain = 0
KMC1 180326Z 30000KT 08/04 A3011 RMK A01 T00810035  RH  073%=      5-min Rain = 0
KMC1 180327Z 32000KT 08/04 A3011 RMK A01 T00810036  RH  073%=      5-min Rain = 0
KMC1 180328Z 32001KT 08/04 A3011 RMK A01 T00800035  RH  073%=      5-min Rain = 0
KMC1 180329Z 32001KT 08/04 A3011 RMK A01 T00810035  RH  073%=      5-min Rain = 0
KMC1 180330Z 32001KT 08/04 A3011 RMK A01 T00810035  RH  073%=      5-min Rain = 0
KMC1 180331Z 31001KT 08/04 A3011 RMK A01 T00810035  RH  073%=      5-min Rain = 0
KMC1 180332Z 30001KT 08/04 A3011 RMK A01 T00810035  RH  073%=      5-min Rain = 0
KMC1 180333Z 27001KT 08/03 A3011 RMK A01 T00800034  RH  073%=      5-min Rain = 0
KMC1 180334Z 27001KT 08/03 A3011 RMK A01 T00780032  RH  073%=      5-min Rain = 0
KMC1 180335Z 26001KT 08/03 A3011 RMK A01 T00750031  RH  074%=      5-min Rain = 0
KMC1 180336Z 24002KT 07/03 A3011 RMK A01 T00730031  RH  075%=      5-min Rain = 0
KMC1 180337Z 24001KT 07/03 A3011 RMK A01 T00720030  RH  075%=      5-min Rain = 0
KMC1 180338Z 24002KT 07/03 A3011 RMK A01 T00700030  RH  075%=      5-min Rain = 0
KMC1 180339Z 23002KT 07/03 A3011 RMK A01 T00700031  RH  076%=      5-min Rain = 0
KMC1 180340Z 23002KT 07/03 A3011 RMK A01 T00680030  RH  077%=      5-min Rain = 0
KMC1 180341Z 22002KT 07/03 A3011 RMK A01 T00670030  RH  077%=      5-min Rain = 0
KMC1 180342Z 22002KT 07/03 A3011 RMK A01 T00660030  RH  078%=      5-min Rain = 0
KMC1 180343Z 23002KT 07/03 A3011 RMK A01 T00650030  RH  078%=      5-min Rain = 0
KMC1 180344Z 23002KT 06/03 A3011 RMK A01 T00640031  RH  079%=      5-min Rain = 0
KMC1 180345Z 24002KT 06/03 A3011 RMK A01 T00640031  RH  079%=      5-min Rain = 0
KMC1 180346Z 23002KT 06/03 A3011 RMK A01 T00630030  RH  079%=      5-min Rain = 0
KMC1 180347Z 24002KT 06/03 A3011 RMK A01 T00620028  RH  079%=      5-min Rain = 0
KMC1 180348Z 24002KT 06/03 A3011 RMK A01 T00620030  RH  080%=      5-min Rain = 0
KMC1 180349Z 24002KT 06/03 A3011 RMK A01 T00620033  RH  081%=      5-min Rain = 0
KMC1 180350Z 23002KT 06/03 A3011 RMK A01 T00640032  RH  080%=      5-min Rain = 0
KMC1 180351Z 23002KT 06/03 A3011 RMK A01 T00630030  RH  079%=      5-min Rain = 0
KMC1 180352Z 23003KT 06/03 A3011 RMK A01 T00630029  RH  079%=      5-min Rain = 0
KMC1 180353Z 22003KT 06/03 A3011 RMK A01 T00610027  RH  079%=      5-min Rain = 0
KMC1 180354Z 21003KT 06/03 A3011 RMK A01 T00600025  RH  079%=      5-min Rain = 0
KMC1 180355Z 21003KT 06/03 A3011 RMK A01 T00590026  RH  079%=      5-min Rain = 0
KMC1 180356Z 21003KT 06/03 A3011 RMK A01 T00570027  RH  081%=      5-min Rain = 0
KMC1 180357Z 20004KT 06/03 A3011 RMK A01 T00560028  RH  082%=      5-min Rain = 0
KMC1 180358Z 20003KT 06/03 A3011 RMK A01 T00560029  RH  082%=      5-min Rain = 0
KMC1 180359Z 21004KT 06/03 A3011 RMK A01 T00560029  RH  082%=      5-min Rain = 0
KMC1 180400Z 21003KT 06/03 A3011 RMK A01 T00570030  RH  083%=      5-min Rain = 0
KMC1 180401Z 21003KT 06/03 A3011 RMK A01 T00590032  RH  083%=      5-min Rain = 0
KMC1 180402Z 22003KT 06/03 A3011 RMK A01 T00600033  RH  083%=      5-min Rain = 0
KMC1 180403Z 22003KT 06/03 A3011 RMK A01 T00620034  RH  082%=      5-min Rain = 0
KMC1 180404Z 23003KT 07/04 A3011 RMK A01 T00650035  RH  081%=      5-min Rain = 0
KMC1 180405Z 23003KT 07/03 A3011 RMK A01 T00660034  RH  080%=      5-min Rain = 0
KMC1 180406Z 24003KT 07/03 A3011 RMK A01 T00670033  RH  079%=      5-min Rain = 0
KMC1 180407Z 24003KT 07/03 A3011 RMK A01 T00660031  RH  078%=      5-min Rain = 0
KMC1 180408Z 25003KT 07/03 A3011 RMK A01 T00650030  RH  078%=      5-min Rain = 0
KMC1 180409Z 25003KT 06/03 A3011 RMK A01 T00640030  RH  079%=      5-min Rain = 0
KMC1 180410Z 26003KT 06/03 A3011 RMK A01 T00630029  RH  079%=      5-min Rain = 0
KMC1 180411Z 26003KT 06/03 A3011 RMK A01 T00610027  RH  079%=      5-min Rain = 0
KMC1 180412Z 27003KT 06/03 A3011 RMK A01 T00600027  RH  080%=      5-min Rain = 0
KMC1 180413Z 28003KT 06/03 A3011 RMK A01 T00590027  RH  080%=      5-min Rain = 0
KMC1 180414Z 29003KT 06/03 A3011 RMK A01 T00570026  RH  080%=      5-min Rain = 0
KMC1 180415Z 29004KT 06/03 A3011 RMK A01 T00570027  RH  081%=      5-min Rain = 0
KMC1 180416Z 29004KT 06/03 A3011 RMK A01 T00560026  RH  081%=      5-min Rain = 0
KMC1 180417Z 29003KT 06/03 A3011 RMK A01 T00550025  RH  081%=      5-min Rain = 0
KMC1 180418Z 29003KT 05/03 A3011 RMK A01 T00540025  RH  081%=      5-min Rain = 0
KMC1 180419Z 28003KT 05/03 A3011 RMK A01 T00540026  RH  082%=      5-min Rain = 0
KMC1 180420Z 27003KT 05/02 A3011 RMK A01 T00520024  RH  082%=      5-min Rain = 0
KMC1 180421Z 26002KT 05/02 A3011 RMK A01 T00510022  RH  082%=      5-min Rain = 0
KMC1 180422Z 25002KT 05/02 A3012 RMK A01 T00480020  RH  082%=      5-min Rain = 0
KMC1 180423Z 24003KT 05/02 A3012 RMK A01 T00460020  RH  083%=      5-min Rain = 0
KMC1 180424Z 23003KT 05/02 A3012 RMK A01 T00450021  RH  084%=      5-min Rain = 0
KMC1 180425Z 22003KT 05/02 A3012 RMK A01 T00450021  RH  085%=      5-min Rain = 0
KMC1 180426Z 22003KT 04/02 A3012 RMK A01 T00440022  RH  085%=      5-min Rain = 0
KMC1 180427Z 21004KT 05/02 A3012 RMK A01 T00450023  RH  086%=      5-min Rain = 0
KMC1 180428Z 21004KT 05/02 A3012 RMK A01 T00450024  RH  086%=      5-min Rain = 0
KMC1 180429Z 21004KT 05/03 A3012 RMK A01 T00460025  RH  086%=      5-min Rain = 0
KMC1 180430Z 21004KT 05/03 A3012 RMK A01 T00460025  RH  086%=      5-min Rain = 0
KMC1 180431Z 20004KT 05/03 A3012 RMK A01 T00470025  RH  086%=      5-min Rain = 0
KMC1 180432Z 20004KT 05/03 A3012 RMK A01 T00480026  RH  086%=      5-min Rain = 0
KMC1 180433Z 19004KT 05/03 A3012 RMK A01 T00480026  RH  086%=      5-min Rain = 0
KMC1 180434Z 19004KT 05/03 A3012 RMK A01 T00480026  RH  086%=      5-min Rain = 0
KMC1 180435Z 20004KT 05/03 A3012 RMK A01 T00480026  RH  086%=      5-min Rain = 0
KMC1 180436Z 20003KT 05/03 A3012 RMK A01 T00480026  RH  085%=      5-min Rain = 0
KMC1 180437Z 21003KT 05/03 A3012 RMK A01 T00490026  RH  085%=      5-min Rain = 0
KMC1 180438Z 22003KT 05/03 A3012 RMK A01 T00490026  RH  085%=      5-min Rain = 0
KMC1 180439Z 23002KT 05/03 A3011 RMK A01 T00490026  RH  085%=      5-min Rain = 0
KMC1 180440Z 23002KT 05/03 A3011 RMK A01 T00500026  RH  085%=      5-min Rain = 0
KMC1 180441Z 24002KT 05/03 A3011 RMK A01 T00500027  RH  085%=      5-min Rain = 0
KMC1 180442Z 25002KT 05/03 A3011 RMK A01 T00510026  RH  084%=      5-min Rain = 0
KMC1 180443Z 25002KT 05/03 A3011 RMK A01 T00510026  RH  084%=      5-min Rain = 0
KMC1 180444Z 25002KT 05/03 A3011 RMK A01 T00510026  RH  084%=      5-min Rain = 0
KMC1 180445Z 24003KT 05/03 A3011 RMK A01 T00520026  RH  083%=      5-min Rain = 0
KMC1 180446Z 23003KT 05/03 A3011 RMK A01 T00510025  RH  083%=      5-min Rain = 0
KMC1 180447Z 23004KT 05/02 A3012 RMK A01 T00500024  RH  083%=      5-min Rain = 0
KMC1 180448Z 22004KT 05/02 A3012 RMK A01 T00500024  RH  084%=      5-min Rain = 0
KMC1 180449Z 23004KT 05/02 A3012 RMK A01 T00490024  RH  084%=      5-min Rain = 0
KMC1 180450Z 22004KT 05/03 A3012 RMK A01 T00480025  RH  085%=      5-min Rain = 0
KMC1 180451Z 22004KT 05/03 A3012 RMK A01 T00500027  RH  085%=      5-min Rain = 0
KMC1 180452Z 23003KT 05/03 A3012 RMK A01 T00510027  RH  084%=      5-min Rain = 0
KMC1 180453Z 23003KT 05/03 A3011 RMK A01 T00510025  RH  083%=      5-min Rain = 0
KMC1 180454Z 24003KT 05/02 A3011 RMK A01 T00500023  RH  083%=      5-min Rain = 0
KMC1 180455Z 25003KT 05/02 A3011 RMK A01 T00480022  RH  083%=      5-min Rain = 0
KMC1 180456Z 25003KT 05/02 A3011 RMK A01 T00460020  RH  083%=      5-min Rain = 0
KMC1 180457Z 25003KT 05/02 A3011 RMK A01 T00450019  RH  084%=      5-min Rain = 0
KMC1 180458Z 24003KT 04/02 A3011 RMK A01 T00440019  RH  084%=      5-min Rain = 0
KMC1 180459Z 24003KT 04/02 A3011 RMK A01 T00420018  RH  084%=      5-min Rain = 0
KMC1 180500Z 23003KT 04/02 A3011 RMK A01 T00400017  RH  085%=      5-min Rain = 0
KMC1 180501Z 23004KT 04/02 A3011 RMK A01 T00390016  RH  085%=      5-min Rain = 0
KMC1 180502Z 22004KT 04/02 A3011 RMK A01 T00370016  RH  086%=      5-min Rain = 0
KMC1 180503Z 22004KT 04/02 A3011 RMK A01 T00350015  RH  087%=      5-min Rain = 0
KMC1 180504Z 22004KT 03/01 A3011 RMK A01 T00340014  RH  087%=      5-min Rain = 0
KMC1 180505Z 23003KT 03/02 A3012 RMK A01 T00330015  RH  088%=      5-min Rain = 0
KMC1 180506Z 24003KT 03/02 A3012 RMK A01 T00330015  RH  088%=      5-min Rain = 0
KMC1 180507Z 25003KT 03/02 A3012 RMK A01 T00320015  RH  089%=      5-min Rain = 0
KMC1 180508Z 25003KT 03/02 A3012 RMK A01 T00310015  RH  089%=      5-min Rain = 0
KMC1 180509Z 25003KT 03/01 A3011 RMK A01 T00300014  RH  089%=      5-min Rain = 0
KMC1 180510Z 24004KT 03/01 A3011 RMK A01 T00290013  RH  089%=      5-min Rain = 0
KMC1 180511Z 25004KT 03/01 A3012 RMK A01 T00290013  RH  089%=      5-min Rain = 0
KMC1 180512Z 25004KT 03/01 A3012 RMK A01 T00280013  RH  089%=      5-min Rain = 0
KMC1 180513Z 25004KT 03/01 A3012 RMK A01 T00280012  RH  089%=      5-min Rain = 0
KMC1 180514Z 24004KT 03/01 A3012 RMK A01 T00270012  RH  089%=      5-min Rain = 0
KMC1 180515Z 23004KT 03/01 A3011 RMK A01 T00260011  RH  090%=      5-min Rain = 0
KMC1 180516Z 23004KT 03/01 A3011 RMK A01 T00260011  RH  090%=      5-min Rain = 0
KMC1 180517Z 22005KT 03/01 A3011 RMK A01 T00260012  RH  090%=      5-min Rain = 0
KMC1 180518Z 23005KT 03/01 A3011 RMK A01 T00260012  RH  091%=      5-min Rain = 0
KMC1 180519Z 23004KT 03/01 A3012 RMK A01 T00260013  RH  091%=      5-min Rain = 0
KMC1 180520Z 23004KT 03/01 A3011 RMK A01 T00270014  RH  091%=      5-min Rain = 0
KMC1 180521Z 23004KT 03/01 A3011 RMK A01 T00270014  RH  091%=      5-min Rain = 0
KMC1 180522Z 24003KT 03/01 A3011 RMK A01 T00280014  RH  091%=      5-min Rain = 0
KMC1 180523Z 24004KT 03/01 A3012 RMK A01 T00280014  RH  091%=      5-min Rain = 0
KMC1 180524Z 25004KT 03/02 A3012 RMK A01 T00290015  RH  091%=      5-min Rain = 0
KMC1 180525Z 25004KT 03/01 A3012 RMK A01 T00290014  RH  090%=      5-min Rain = 0
KMC1 180526Z 25004KT 03/01 A3012 RMK A01 T00280013  RH  090%=      5-min Rain = 0
KMC1 180527Z 24003KT 03/01 A3011 RMK A01 T00270012  RH  089%=      5-min Rain = 0
KMC1 180528Z 24003KT 03/01 A3011 RMK A01 T00270011  RH  089%=      5-min Rain = 0
KMC1 180529Z 24003KT 03/01 A3011 RMK A01 T00270011  RH  090%=      5-min Rain = 0
KMC1 180530Z 24004KT 03/01 A3011 RMK A01 T00260011  RH  090%=      5-min Rain = 0
KMC1 180531Z 22004KT 03/01 A3011 RMK A01 T00260011  RH  090%=      5-min Rain = 0
KMC1 180532Z 21004KT 03/01 A3011 RMK A01 T00260011  RH  090%=      5-min Rain = 0
KMC1 180533Z 20004KT 03/01 A3011 RMK A01 T00260011  RH  090%=      5-min Rain = 0
KMC1 180534Z 20003KT 03/01 A301 RMK A01 T00250011  RH  090%=      5-min Rain = 0
KMC1 180535Z 21003KT 03/01 A301 RMK A01 T00260013  RH  091%=      5-min Rain = 0
KMC1 180536Z 24002KT 03/01 A301 RMK A01 T00260014  RH  092%=      5-min Rain = 0
KMC1 180537Z 25002KT 03/02 A301 RMK A01 T00280017  RH  092%=      5-min Rain = 0
KMC1 180538Z 24002KT 03/02 A301 RMK A01 T00290018  RH  092%=      5-min Rain = 0
KMC1 180539Z 25002KT 03/02 A301 RMK A01 T00300018  RH  092%=      5-min Rain = 0
KMC1 180540Z 23003KT 03/02 A301 RMK A01 T00300017  RH  091%=      5-min Rain = 0
KMC1 180541Z 24003KT 03/02 A301 RMK A01 T00300016  RH  090%=      5-min Rain = 0
KMC1 180542Z 24003KT 03/02 A301 RMK A01 T00300015  RH  090%=      5-min Rain = 0
KMC1 180543Z 25003KT 03/01 A301 RMK A01 T00290014  RH  089%=      5-min Rain = 0
KMC1 180544Z 25003KT 03/01 A301 RMK A01 T00280012  RH  089%=      5-min Rain = 0
KMC1 180545Z 25003KT 03/01 A301 RMK A01 T00280013  RH  089%=      5-min Rain = 0
KMC1 180546Z 26003KT 03/01 A301 RMK A01 T00280013  RH  090%=      5-min Rain = 0
KMC1 180547Z 27003KT 03/01 A301 RMK A01 T00280013  RH  090%=      5-min Rain = 0
KMC1 180548Z 26003KT 03/01 A301 RMK A01 T00270011  RH  089%=      5-min Rain = 0
KMC1 180549Z 25003KT 03/01 A301 RMK A01 T00270011  RH  089%=      5-min Rain = 0
KMC1 180550Z 24003KT 03/01 A301 RMK A01 T00260011  RH  089%=      5-min Rain = 0
KMC1 180551Z 24004KT 03/01 A301 RMK A01 T00250008  RH  089%=      5-min Rain = 0
KMC1 180552Z 25004KT 02/01 A301 RMK A01 T00230007  RH  089%=      5-min Rain = 0
KMC1 180553Z 25004KT 02/01 A301 RMK A01 T00230009  RH  090%=      5-min Rain = 0
KMC1 180554Z 26004KT 02/01 A301 RMK A01 T00230011  RH  091%=      5-min Rain = 0
KMC1 180555Z 27004KT 03/02 A301 RMK A01 T00260015  RH  093%=      5-min Rain = 0
KMC1 180556Z 27003KT 03/02 A301 RMK A01 T00270017  RH  093%=      5-min Rain = 0
KMC1 180557Z 27003KT 03/02 A301 RMK A01 T00280017  RH  093%=      5-min Rain = 0
KMC1 180558Z 26003KT 03/02 A301 RMK A01 T00280017  RH  093%=      5-min Rain = 0
KMC1 180559Z 25002KT 03/02 A301 RMK A01 T00290017  RH  092%=      5-min Rain = 0

Page generated in 0.0765 seconds.